<?xml version="1.0" encoding="UTF-8"?>
<gpx version="1.1" creator="2bulu-scraper" xmlns="http://www.topografix.com/GPX/1/1">
  <metadata><name>珙县猴子岩</name><desc>source: 2bulu.com trackId=84309163; exported 2026-08-31T01:44:14.942Z</desc>
    <bounds minlat="28.3847607" minlon="104.6999323" maxlat="28.4052772" maxlon="104.7181661"/>
    <link href="https://www.2bulu.com/track/t-7HWdl3kwvgbp%252FR2KBg5Tzw%253D%253D.htm"><text>2bulu 源页面</text></link>
  </metadata>
  <wpt lat="28.3929038" lon="104.7168404"><ele>884</ele><name>
        </name></wpt>
  <wpt lat="28.3898708" lon="104.7158964"><ele>907</ele><name>
        </name></wpt>
  <wpt lat="28.3880739" lon="104.7151238"><ele>917</ele><name>
        </name></wpt>
  <wpt lat="28.387621" lon="104.7150394"><ele>921</ele><name>
        </name></wpt>
  <wpt lat="28.3848964" lon="104.7136953"><ele>977</ele><name>
        </name></wpt>
  <wpt lat="28.3849507" lon="104.7120705"><ele>982</ele><name>
        </name></wpt>
  <wpt lat="28.3873057" lon="104.7107887"><ele>1000</ele><name>
        </name></wpt>
  <wpt lat="28.3926801" lon="104.7136555"><ele>989</ele><name>
        </name></wpt>
  <wpt lat="28.3945801" lon="104.7128284"><ele>941</ele><name>
        </name></wpt>
  <wpt lat="28.3947682" lon="104.7114113"><ele>861</ele><name>
        </name></wpt>
  <wpt lat="28.3938824" lon="104.7107053"><ele>868</ele><name>
        </name></wpt>
  <wpt lat="28.3927978" lon="104.7083975"><ele>860</ele><name>
        </name></wpt>
  <wpt lat="28.3918478" lon="104.705528"><ele>808</ele><name>
        </name></wpt>
  <wpt lat="28.390179" lon="104.7042788"><ele>784</ele><name>
        </name></wpt>
  <wpt lat="28.3871992" lon="104.7021903"><ele>712</ele><name>
        </name></wpt>
  <wpt lat="28.3882723" lon="104.701423"><ele>666</ele><name>
        </name></wpt>
  <wpt lat="28.3895198" lon="104.7014453"><ele>584</ele><name>
        </name></wpt>
  <wpt lat="28.3902027" lon="104.7016927"><ele>570</ele><name>
        </name></wpt>
  <wpt lat="28.3945885" lon="104.7040562"><ele>519</ele><name>
        </name></wpt>
  <wpt lat="28.3954316" lon="104.7043273"><ele>509</ele><name>
        </name></wpt>
  <wpt lat="28.39677" lon="104.7053065"><ele>503</ele><name>
        </name></wpt>
  <trk><name>珙县猴子岩</name>
      <trkseg>
        <trkpt lat="28.4047633" lon="104.7113304"><ele>417.68</ele><time>2026-05-15T17:35:53.000Z</time></trkpt>
        <trkpt lat="28.4046365" lon="104.7112953"><ele>417.68</ele><time>2026-05-15T17:36:05.000Z</time></trkpt>
        <trkpt lat="28.4045326" lon="104.7113009"><ele>417.06</ele><time>2026-05-15T17:36:15.000Z</time></trkpt>
        <trkpt lat="28.4044279" lon="104.7113089"><ele>416.15</ele><time>2026-05-15T17:36:25.000Z</time></trkpt>
        <trkpt lat="28.4043367" lon="104.7112948"><ele>415.45</ele><time>2026-05-15T17:36:33.000Z</time></trkpt>
        <trkpt lat="28.4042378" lon="104.7112775"><ele>414.86</ele><time>2026-05-15T17:36:43.000Z</time></trkpt>
        <trkpt lat="28.4041472" lon="104.7112535"><ele>413.25</ele><time>2026-05-15T17:36:59.000Z</time></trkpt>
        <trkpt lat="28.4041898" lon="104.7112795"><ele>410.41</ele><time>2026-05-15T17:37:45.000Z</time></trkpt>
        <trkpt lat="28.4042484" lon="104.7113702"><ele>408.59</ele><time>2026-05-15T17:37:53.000Z</time></trkpt>
        <trkpt lat="28.4043014" lon="104.7114869"><ele>408.15</ele><time>2026-05-15T17:38:01.000Z</time></trkpt>
        <trkpt lat="28.4043361" lon="104.7116044"><ele>408.42</ele><time>2026-05-15T17:38:09.000Z</time></trkpt>
        <trkpt lat="28.4043857" lon="104.711702"><ele>408.77</ele><time>2026-05-15T17:38:17.000Z</time></trkpt>
        <trkpt lat="28.4044653" lon="104.7117727"><ele>409.36</ele><time>2026-05-15T17:38:25.000Z</time></trkpt>
        <trkpt lat="28.4045402" lon="104.7118631"><ele>410.24</ele><time>2026-05-15T17:38:35.000Z</time></trkpt>
        <trkpt lat="28.4045679" lon="104.7119649"><ele>411.47</ele><time>2026-05-15T17:38:45.000Z</time></trkpt>
        <trkpt lat="28.4045672" lon="104.7119912"><ele>411.33</ele><time>2026-05-15T17:38:47.000Z</time></trkpt>
        <trkpt lat="28.4045069" lon="104.7119402"><ele>411.42</ele><time>2026-05-15T17:38:57.000Z</time></trkpt>
        <trkpt lat="28.4044524" lon="104.7118976"><ele>412.52</ele><time>2026-05-15T17:39:05.000Z</time></trkpt>
        <trkpt lat="28.4045059" lon="104.7119633"><ele>413.77</ele><time>2026-05-15T17:41:21.000Z</time></trkpt>
        <trkpt lat="28.404489" lon="104.7120819"><ele>416.63</ele><time>2026-05-15T17:41:41.000Z</time></trkpt>
        <trkpt lat="28.4044782" lon="104.7122016"><ele>420.45</ele><time>2026-05-15T17:41:49.000Z</time></trkpt>
        <trkpt lat="28.404476" lon="104.7123142"><ele>423.82</ele><time>2026-05-15T17:41:59.000Z</time></trkpt>
        <trkpt lat="28.4044279" lon="104.712277"><ele>426.52</ele><time>2026-05-15T17:42:23.000Z</time></trkpt>
        <trkpt lat="28.4043603" lon="104.7123137"><ele>429.07</ele><time>2026-05-15T17:42:41.000Z</time></trkpt>
        <trkpt lat="28.4042886" lon="104.7123745"><ele>432.07</ele><time>2026-05-15T17:43:01.000Z</time></trkpt>
        <trkpt lat="28.4041947" lon="104.7123893"><ele>434.48</ele><time>2026-05-15T17:43:19.000Z</time></trkpt>
        <trkpt lat="28.4040911" lon="104.7123857"><ele>435.82</ele><time>2026-05-15T17:43:27.000Z</time></trkpt>
        <trkpt lat="28.403983" lon="104.7123751"><ele>437.26</ele><time>2026-05-15T17:43:35.000Z</time></trkpt>
        <trkpt lat="28.4038708" lon="104.7123695"><ele>438.42</ele><time>2026-05-15T17:43:45.000Z</time></trkpt>
        <trkpt lat="28.4037651" lon="104.7123859"><ele>439.22</ele><time>2026-05-15T17:43:55.000Z</time></trkpt>
        <trkpt lat="28.4036696" lon="104.7124096"><ele>440.34</ele><time>2026-05-15T17:44:01.000Z</time></trkpt>
        <trkpt lat="28.4035778" lon="104.7124365"><ele>441.29</ele><time>2026-05-15T17:44:09.000Z</time></trkpt>
        <trkpt lat="28.4035504" lon="104.7124369"><ele>443.32</ele><time>2026-05-15T17:44:11.000Z</time></trkpt>
        <trkpt lat="28.4035185" lon="104.7125078"><ele>444.85</ele><time>2026-05-15T17:44:21.000Z</time></trkpt>
        <trkpt lat="28.4034984" lon="104.7126183"><ele>446.07</ele><time>2026-05-15T17:44:35.000Z</time></trkpt>
        <trkpt lat="28.4034761" lon="104.7127296"><ele>447</ele><time>2026-05-15T17:44:53.000Z</time></trkpt>
        <trkpt lat="28.4034167" lon="104.7128138"><ele>447.43</ele><time>2026-05-15T17:45:05.000Z</time></trkpt>
        <trkpt lat="28.4033492" lon="104.7128907"><ele>448.29</ele><time>2026-05-15T17:45:19.000Z</time></trkpt>
        <trkpt lat="28.4032655" lon="104.7128831"><ele>450.66</ele><time>2026-05-15T17:45:31.000Z</time></trkpt>
        <trkpt lat="28.4032295" lon="104.7129613"><ele>454.61</ele><time>2026-05-15T17:45:45.000Z</time></trkpt>
        <trkpt lat="28.4032173" lon="104.7130638"><ele>457.22</ele><time>2026-05-15T17:45:53.000Z</time></trkpt>
        <trkpt lat="28.4032136" lon="104.713181"><ele>457.54</ele><time>2026-05-15T17:46:03.000Z</time></trkpt>
        <trkpt lat="28.4032427" lon="104.7133012"><ele>458.01</ele><time>2026-05-15T17:46:11.000Z</time></trkpt>
        <trkpt lat="28.4032837" lon="104.7134125"><ele>457.77</ele><time>2026-05-15T17:46:21.000Z</time></trkpt>
        <trkpt lat="28.4033267" lon="104.713518"><ele>458.69</ele><time>2026-05-15T17:46:29.000Z</time></trkpt>
        <trkpt lat="28.4033838" lon="104.7136122"><ele>458.81</ele><time>2026-05-15T17:46:39.000Z</time></trkpt>
        <trkpt lat="28.4033412" lon="104.7136781"><ele>459.44</ele><time>2026-05-15T17:46:53.000Z</time></trkpt>
        <trkpt lat="28.4032617" lon="104.7137477"><ele>460.33</ele><time>2026-05-15T17:47:05.000Z</time></trkpt>
        <trkpt lat="28.4031607" lon="104.7137888"><ele>462.39</ele><time>2026-05-15T17:47:17.000Z</time></trkpt>
        <trkpt lat="28.4030559" lon="104.7138253"><ele>465.23</ele><time>2026-05-15T17:47:29.000Z</time></trkpt>
        <trkpt lat="28.4029549" lon="104.7138783"><ele>469</ele><time>2026-05-15T17:47:41.000Z</time></trkpt>
        <trkpt lat="28.4028526" lon="104.7138871"><ele>472.6</ele><time>2026-05-15T17:47:51.000Z</time></trkpt>
        <trkpt lat="28.402767" lon="104.7139358"><ele>474.65</ele><time>2026-05-15T17:48:01.000Z</time></trkpt>
        <trkpt lat="28.4026923" lon="104.7140013"><ele>476.92</ele><time>2026-05-15T17:48:11.000Z</time></trkpt>
        <trkpt lat="28.4026275" lon="104.7140764"><ele>479.28</ele><time>2026-05-15T17:48:21.000Z</time></trkpt>
        <trkpt lat="28.4025633" lon="104.714158"><ele>481.46</ele><time>2026-05-15T17:48:33.000Z</time></trkpt>
        <trkpt lat="28.4025342" lon="104.7142588"><ele>483.01</ele><time>2026-05-15T17:48:47.000Z</time></trkpt>
        <trkpt lat="28.4024653" lon="104.7142724"><ele>487.37</ele><time>2026-05-15T17:48:59.000Z</time></trkpt>
        <trkpt lat="28.4023737" lon="104.7142782"><ele>490.19</ele><time>2026-05-15T17:49:19.000Z</time></trkpt>
        <trkpt lat="28.4022723" lon="104.7142699"><ele>494.2</ele><time>2026-05-15T17:49:31.000Z</time></trkpt>
        <trkpt lat="28.4021799" lon="104.7142305"><ele>496.69</ele><time>2026-05-15T17:49:41.000Z</time></trkpt>
        <trkpt lat="28.4020883" lon="104.7142233"><ele>498.56</ele><time>2026-05-15T17:49:51.000Z</time></trkpt>
        <trkpt lat="28.4019946" lon="104.7142065"><ele>500.76</ele><time>2026-05-15T17:50:03.000Z</time></trkpt>
        <trkpt lat="28.4019026" lon="104.714204"><ele>503.32</ele><time>2026-05-15T17:50:13.000Z</time></trkpt>
        <trkpt lat="28.4018054" lon="104.7141888"><ele>505.65</ele><time>2026-05-15T17:50:23.000Z</time></trkpt>
        <trkpt lat="28.4017549" lon="104.714265"><ele>506.99</ele><time>2026-05-15T17:50:41.000Z</time></trkpt>
        <trkpt lat="28.4017559" lon="104.7143737"><ele>508.38</ele><time>2026-05-15T17:50:51.000Z</time></trkpt>
        <trkpt lat="28.4017726" lon="104.7144935"><ele>507.3</ele><time>2026-05-15T17:50:59.000Z</time></trkpt>
        <trkpt lat="28.4017802" lon="104.7146129"><ele>506.84</ele><time>2026-05-15T17:51:07.000Z</time></trkpt>
        <trkpt lat="28.4017673" lon="104.7146875"><ele>506.99</ele><time>2026-05-15T17:51:13.000Z</time></trkpt>
        <trkpt lat="28.4017243" lon="104.7147783"><ele>507.84</ele><time>2026-05-15T17:51:23.000Z</time></trkpt>
        <trkpt lat="28.4016518" lon="104.7148594"><ele>507.49</ele><time>2026-05-15T17:51:33.000Z</time></trkpt>
        <trkpt lat="28.4015716" lon="104.7149416"><ele>507.76</ele><time>2026-05-15T17:51:45.000Z</time></trkpt>
        <trkpt lat="28.4015215" lon="104.715041"><ele>508.98</ele><time>2026-05-15T17:51:55.000Z</time></trkpt>
        <trkpt lat="28.4015097" lon="104.7151507"><ele>509.42</ele><time>2026-05-15T17:52:03.000Z</time></trkpt>
        <trkpt lat="28.401514" lon="104.7152629"><ele>509.83</ele><time>2026-05-15T17:52:11.000Z</time></trkpt>
        <trkpt lat="28.4015166" lon="104.7153722"><ele>510.23</ele><time>2026-05-15T17:52:19.000Z</time></trkpt>
        <trkpt lat="28.4014922" lon="104.7154716"><ele>510.72</ele><time>2026-05-15T17:52:27.000Z</time></trkpt>
        <trkpt lat="28.4014448" lon="104.71556"><ele>511.26</ele><time>2026-05-15T17:52:35.000Z</time></trkpt>
        <trkpt lat="28.4013881" lon="104.715661"><ele>511.79</ele><time>2026-05-15T17:52:45.000Z</time></trkpt>
        <trkpt lat="28.4013408" lon="104.7157582"><ele>512.4</ele><time>2026-05-15T17:52:53.000Z</time></trkpt>
        <trkpt lat="28.4013109" lon="104.7158572"><ele>513.01</ele><time>2026-05-15T17:53:01.000Z</time></trkpt>
        <trkpt lat="28.4012673" lon="104.7159531"><ele>513.59</ele><time>2026-05-15T17:53:09.000Z</time></trkpt>
        <trkpt lat="28.4012209" lon="104.7160492"><ele>513.46</ele><time>2026-05-15T17:53:17.000Z</time></trkpt>
        <trkpt lat="28.4011627" lon="104.7161326"><ele>513.53</ele><time>2026-05-15T17:53:25.000Z</time></trkpt>
        <trkpt lat="28.4011015" lon="104.7162131"><ele>513.56</ele><time>2026-05-15T17:53:33.000Z</time></trkpt>
        <trkpt lat="28.4010353" lon="104.7162933"><ele>513.76</ele><time>2026-05-15T17:53:41.000Z</time></trkpt>
        <trkpt lat="28.400973" lon="104.7163748"><ele>513.76</ele><time>2026-05-15T17:53:49.000Z</time></trkpt>
        <trkpt lat="28.4009093" lon="104.7164562"><ele>513.89</ele><time>2026-05-15T17:53:57.000Z</time></trkpt>
        <trkpt lat="28.4008414" lon="104.7165311"><ele>513.88</ele><time>2026-05-15T17:54:05.000Z</time></trkpt>
        <trkpt lat="28.4007692" lon="104.716595"><ele>513.82</ele><time>2026-05-15T17:54:13.000Z</time></trkpt>
        <trkpt lat="28.4006826" lon="104.7166273"><ele>513.95</ele><time>2026-05-15T17:54:21.000Z</time></trkpt>
        <trkpt lat="28.4005885" lon="104.7166232"><ele>514.26</ele><time>2026-05-15T17:54:29.000Z</time></trkpt>
        <trkpt lat="28.4004837" lon="104.7166024"><ele>514.43</ele><time>2026-05-15T17:54:39.000Z</time></trkpt>
        <trkpt lat="28.4003923" lon="104.7165588"><ele>515.72</ele><time>2026-05-15T17:54:47.000Z</time></trkpt>
        <trkpt lat="28.400304" lon="104.716524"><ele>517.06</ele><time>2026-05-15T17:54:55.000Z</time></trkpt>
        <trkpt lat="28.400198" lon="104.7165291"><ele>518.09</ele><time>2026-05-15T17:55:05.000Z</time></trkpt>
        <trkpt lat="28.4001046" lon="104.7165675"><ele>518.9</ele><time>2026-05-15T17:55:13.000Z</time></trkpt>
        <trkpt lat="28.4000235" lon="104.7166255"><ele>519.87</ele><time>2026-05-15T17:55:21.000Z</time></trkpt>
        <trkpt lat="28.3999422" lon="104.7166826"><ele>520.7</ele><time>2026-05-15T17:55:29.000Z</time></trkpt>
        <trkpt lat="28.399857" lon="104.716739"><ele>521.39</ele><time>2026-05-15T17:55:37.000Z</time></trkpt>
        <trkpt lat="28.3997762" lon="104.7168037"><ele>522.1</ele><time>2026-05-15T17:55:45.000Z</time></trkpt>
        <trkpt lat="28.3997005" lon="104.7168739"><ele>522.81</ele><time>2026-05-15T17:55:53.000Z</time></trkpt>
        <trkpt lat="28.3996211" lon="104.716936"><ele>523.88</ele><time>2026-05-15T17:56:01.000Z</time></trkpt>
        <trkpt lat="28.3995437" lon="104.716996"><ele>524.33</ele><time>2026-05-15T17:56:09.000Z</time></trkpt>
        <trkpt lat="28.3994537" lon="104.717054"><ele>524.89</ele><time>2026-05-15T17:56:19.000Z</time></trkpt>
        <trkpt lat="28.3993614" lon="104.7170845"><ele>525.38</ele><time>2026-05-15T17:56:27.000Z</time></trkpt>
        <trkpt lat="28.3992566" lon="104.7171119"><ele>525.98</ele><time>2026-05-15T17:56:37.000Z</time></trkpt>
        <trkpt lat="28.3991653" lon="104.7170592"><ele>526.27</ele><time>2026-05-15T17:56:47.000Z</time></trkpt>
        <trkpt lat="28.3990659" lon="104.7170303"><ele>527.5</ele><time>2026-05-15T17:56:57.000Z</time></trkpt>
        <trkpt lat="28.3990011" lon="104.7170707"><ele>528.42</ele><time>2026-05-15T17:57:05.000Z</time></trkpt>
        <trkpt lat="28.3989233" lon="104.7171289"><ele>526.01</ele><time>2026-05-15T17:57:17.000Z</time></trkpt>
        <trkpt lat="28.3988349" lon="104.7171331"><ele>524.19</ele><time>2026-05-15T17:57:29.000Z</time></trkpt>
        <trkpt lat="28.3987357" lon="104.7171124"><ele>524.72</ele><time>2026-05-15T17:57:41.000Z</time></trkpt>
        <trkpt lat="28.3986411" lon="104.7170677"><ele>526.07</ele><time>2026-05-15T17:57:51.000Z</time></trkpt>
        <trkpt lat="28.3985569" lon="104.7171013"><ele>527.09</ele><time>2026-05-15T17:58:05.000Z</time></trkpt>
        <trkpt lat="28.3984613" lon="104.7171247"><ele>528.26</ele><time>2026-05-15T17:58:19.000Z</time></trkpt>
        <trkpt lat="28.3983763" lon="104.7170953"><ele>528.11</ele><time>2026-05-15T17:58:33.000Z</time></trkpt>
        <trkpt lat="28.3983194" lon="104.7170174"><ele>530.85</ele><time>2026-05-15T17:58:51.000Z</time></trkpt>
        <trkpt lat="28.3982371" lon="104.7170203"><ele>535.67</ele><time>2026-05-15T17:59:09.000Z</time></trkpt>
        <trkpt lat="28.3981431" lon="104.7170246"><ele>539.63</ele><time>2026-05-15T17:59:44.000Z</time></trkpt>
        <trkpt lat="28.3980659" lon="104.7170791"><ele>547.53</ele><time>2026-05-15T18:00:02.000Z</time></trkpt>
        <trkpt lat="28.3980059" lon="104.7171641"><ele>553.57</ele><time>2026-05-15T18:00:18.000Z</time></trkpt>
        <trkpt lat="28.3979227" lon="104.7172132"><ele>557.02</ele><time>2026-05-15T18:00:46.000Z</time></trkpt>
        <trkpt lat="28.3978241" lon="104.7172382"><ele>560.83</ele><time>2026-05-15T18:02:24.000Z</time></trkpt>
        <trkpt lat="28.3977292" lon="104.717233"><ele>566.75</ele><time>2026-05-15T18:02:48.000Z</time></trkpt>
        <trkpt lat="28.3976712" lon="104.7171593"><ele>569.52</ele><time>2026-05-15T18:03:22.000Z</time></trkpt>
        <trkpt lat="28.3976203" lon="104.7170662"><ele>574.05</ele><time>2026-05-15T18:03:46.000Z</time></trkpt>
        <trkpt lat="28.3975801" lon="104.7169644"><ele>576.65</ele><time>2026-05-15T18:04:08.000Z</time></trkpt>
        <trkpt lat="28.3975326" lon="104.7168684"><ele>579.59</ele><time>2026-05-15T18:04:32.000Z</time></trkpt>
        <trkpt lat="28.3974659" lon="104.7168934"><ele>582.3</ele><time>2026-05-15T18:05:22.000Z</time></trkpt>
        <trkpt lat="28.3974019" lon="104.7168511"><ele>586.77</ele><time>2026-05-15T18:05:56.000Z</time></trkpt>
        <trkpt lat="28.3973819" lon="104.7168361"><ele>590.81</ele><time>2026-05-15T18:06:00.000Z</time></trkpt>
        <trkpt lat="28.3973507" lon="104.716756"><ele>592.8</ele><time>2026-05-15T18:06:36.000Z</time></trkpt>
        <trkpt lat="28.3972752" lon="104.7167159"><ele>595.7</ele><time>2026-05-15T18:07:18.000Z</time></trkpt>
        <trkpt lat="28.3971826" lon="104.7166801"><ele>599.18</ele><time>2026-05-15T18:07:38.000Z</time></trkpt>
        <trkpt lat="28.397073" lon="104.7166774"><ele>601.26</ele><time>2026-05-15T18:07:48.000Z</time></trkpt>
        <trkpt lat="28.3970133" lon="104.7166991"><ele>604.15</ele><time>2026-05-15T18:08:00.000Z</time></trkpt>
        <trkpt lat="28.3969331" lon="104.7167212"><ele>608.07</ele><time>2026-05-15T18:08:32.000Z</time></trkpt>
        <trkpt lat="28.3968433" lon="104.716737"><ele>610.79</ele><time>2026-05-15T18:08:48.000Z</time></trkpt>
        <trkpt lat="28.3967548" lon="104.7167082"><ele>613.76</ele><time>2026-05-15T18:09:06.000Z</time></trkpt>
        <trkpt lat="28.3967134" lon="104.7166911"><ele>616.15</ele><time>2026-05-15T18:09:14.000Z</time></trkpt>
        <trkpt lat="28.3966343" lon="104.7166825"><ele>617.18</ele><time>2026-05-15T18:09:38.000Z</time></trkpt>
        <trkpt lat="28.3966538" lon="104.7167499"><ele>620.58</ele><time>2026-05-15T18:09:46.000Z</time></trkpt>
        <trkpt lat="28.3966018" lon="104.7167936"><ele>624.26</ele><time>2026-05-15T18:10:18.000Z</time></trkpt>
        <trkpt lat="28.3965748" lon="104.7168891"><ele>626.62</ele><time>2026-05-15T18:10:54.000Z</time></trkpt>
        <trkpt lat="28.3964866" lon="104.7169017"><ele>633.56</ele><time>2026-05-15T18:11:16.000Z</time></trkpt>
        <trkpt lat="28.3963877" lon="104.7169024"><ele>636.49</ele><time>2026-05-15T18:11:32.000Z</time></trkpt>
        <trkpt lat="28.3963991" lon="104.7169666"><ele>638.9</ele><time>2026-05-15T18:11:56.000Z</time></trkpt>
        <trkpt lat="28.3964004" lon="104.7170826"><ele>643.82</ele><time>2026-05-15T18:12:58.000Z</time></trkpt>
        <trkpt lat="28.396301" lon="104.7170944"><ele>648.41</ele><time>2026-05-15T18:13:22.000Z</time></trkpt>
        <trkpt lat="28.3963298" lon="104.7171692"><ele>654.58</ele><time>2026-05-15T18:13:48.000Z</time></trkpt>
        <trkpt lat="28.3963792" lon="104.717258"><ele>661</ele><time>2026-05-15T18:14:08.000Z</time></trkpt>
        <trkpt lat="28.3963396" lon="104.7172428"><ele>665.04</ele><time>2026-05-15T18:14:20.000Z</time></trkpt>
        <trkpt lat="28.396253" lon="104.7172171"><ele>667.96</ele><time>2026-05-15T18:14:34.000Z</time></trkpt>
        <trkpt lat="28.3961541" lon="104.7172137"><ele>669.86</ele><time>2026-05-15T18:14:52.000Z</time></trkpt>
        <trkpt lat="28.3961522" lon="104.7172954"><ele>671.1</ele><time>2026-05-15T18:15:20.000Z</time></trkpt>
        <trkpt lat="28.3962147" lon="104.7173822"><ele>673.99</ele><time>2026-05-15T18:15:36.000Z</time></trkpt>
        <trkpt lat="28.3963026" lon="104.7174621"><ele>678.45</ele><time>2026-05-15T18:15:58.000Z</time></trkpt>
        <trkpt lat="28.396385" lon="104.7175384"><ele>683.51</ele><time>2026-05-15T18:16:14.000Z</time></trkpt>
        <trkpt lat="28.3964436" lon="104.7176388"><ele>686.3</ele><time>2026-05-15T18:16:24.000Z</time></trkpt>
        <trkpt lat="28.3964231" lon="104.7177369"><ele>689.62</ele><time>2026-05-15T18:16:40.000Z</time></trkpt>
        <trkpt lat="28.3963778" lon="104.7176885"><ele>691.15</ele><time>2026-05-15T18:16:56.000Z</time></trkpt>
        <trkpt lat="28.3962973" lon="104.717625"><ele>694.61</ele><time>2026-05-15T18:17:12.000Z</time></trkpt>
        <trkpt lat="28.3962682" lon="104.7177126"><ele>698.47</ele><time>2026-05-15T18:19:32.000Z</time></trkpt>
        <trkpt lat="28.3961761" lon="104.7176807"><ele>702.39</ele><time>2026-05-15T18:20:02.000Z</time></trkpt>
        <trkpt lat="28.3960758" lon="104.7176743"><ele>706.81</ele><time>2026-05-15T18:20:30.000Z</time></trkpt>
        <trkpt lat="28.3961127" lon="104.7177153"><ele>711.67</ele><time>2026-05-15T18:20:48.000Z</time></trkpt>
        <trkpt lat="28.3960612" lon="104.7177111"><ele>715.5</ele><time>2026-05-15T18:21:06.000Z</time></trkpt>
        <trkpt lat="28.3959788" lon="104.7177064"><ele>719.69</ele><time>2026-05-15T18:21:26.000Z</time></trkpt>
        <trkpt lat="28.3958922" lon="104.7176712"><ele>724.23</ele><time>2026-05-15T18:21:56.000Z</time></trkpt>
        <trkpt lat="28.3958017" lon="104.7176341"><ele>729.09</ele><time>2026-05-15T18:22:16.000Z</time></trkpt>
        <trkpt lat="28.3957108" lon="104.7175723"><ele>733.26</ele><time>2026-05-15T18:22:30.000Z</time></trkpt>
        <trkpt lat="28.3956386" lon="104.7175409"><ele>737.19</ele><time>2026-05-15T18:22:38.000Z</time></trkpt>
        <trkpt lat="28.3955545" lon="104.717516"><ele>739.77</ele><time>2026-05-15T18:22:56.000Z</time></trkpt>
        <trkpt lat="28.3954658" lon="104.7175198"><ele>741.7</ele><time>2026-05-15T18:23:12.000Z</time></trkpt>
        <trkpt lat="28.3953773" lon="104.7175485"><ele>743.82</ele><time>2026-05-15T18:23:50.000Z</time></trkpt>
        <trkpt lat="28.3953855" lon="104.7176344"><ele>746.92</ele><time>2026-05-15T18:24:14.000Z</time></trkpt>
        <trkpt lat="28.395473" lon="104.7177006"><ele>748.94</ele><time>2026-05-15T18:24:26.000Z</time></trkpt>
        <trkpt lat="28.3955682" lon="104.7177702"><ele>752.17</ele><time>2026-05-15T18:24:40.000Z</time></trkpt>
        <trkpt lat="28.3956633" lon="104.7178403"><ele>755.12</ele><time>2026-05-15T18:24:54.000Z</time></trkpt>
        <trkpt lat="28.3956191" lon="104.7178682"><ele>758.52</ele><time>2026-05-15T18:25:32.000Z</time></trkpt>
        <trkpt lat="28.39552" lon="104.7178599"><ele>761.77</ele><time>2026-05-15T18:25:52.000Z</time></trkpt>
        <trkpt lat="28.3954167" lon="104.7178868"><ele>765.25</ele><time>2026-05-15T18:26:04.000Z</time></trkpt>
        <trkpt lat="28.3953171" lon="104.7179195"><ele>769.07</ele><time>2026-05-15T18:26:20.000Z</time></trkpt>
        <trkpt lat="28.3952173" lon="104.7179213"><ele>771.75</ele><time>2026-05-15T18:26:34.000Z</time></trkpt>
        <trkpt lat="28.3951221" lon="104.717921"><ele>774.2</ele><time>2026-05-15T18:26:54.000Z</time></trkpt>
        <trkpt lat="28.3950361" lon="104.7179529"><ele>776.03</ele><time>2026-05-15T18:27:16.000Z</time></trkpt>
        <trkpt lat="28.3949303" lon="104.717989"><ele>780.03</ele><time>2026-05-15T18:29:08.000Z</time></trkpt>
        <trkpt lat="28.3948405" lon="104.7179947"><ele>784.94</ele><time>2026-05-15T18:29:18.000Z</time></trkpt>
        <trkpt lat="28.3947766" lon="104.717913"><ele>789.77</ele><time>2026-05-15T18:29:38.000Z</time></trkpt>
        <trkpt lat="28.3947302" lon="104.7179622"><ele>792.55</ele><time>2026-05-15T18:29:56.000Z</time></trkpt>
        <trkpt lat="28.3946913" lon="104.7180598"><ele>796.17</ele><time>2026-05-15T18:30:20.000Z</time></trkpt>
        <trkpt lat="28.3946668" lon="104.7180189"><ele>800.32</ele><time>2026-05-15T18:30:36.000Z</time></trkpt>
        <trkpt lat="28.3946231" lon="104.7180603"><ele>803.74</ele><time>2026-05-15T18:30:48.000Z</time></trkpt>
        <trkpt lat="28.394548" lon="104.7181082"><ele>805.48</ele><time>2026-05-15T18:31:20.000Z</time></trkpt>
        <trkpt lat="28.3944676" lon="104.7181661"><ele>807.06</ele><time>2026-05-15T18:31:50.000Z</time></trkpt>
        <trkpt lat="28.3944729" lon="104.7181116"><ele>810.48</ele><time>2026-05-15T18:32:18.000Z</time></trkpt>
        <trkpt lat="28.3945033" lon="104.7180072"><ele>814.95</ele><time>2026-05-15T18:32:30.000Z</time></trkpt>
        <trkpt lat="28.3944994" lon="104.7178947"><ele>818.79</ele><time>2026-05-15T18:32:46.000Z</time></trkpt>
        <trkpt lat="28.3944709" lon="104.7177875"><ele>821.66</ele><time>2026-05-15T18:33:06.000Z</time></trkpt>
        <trkpt lat="28.3944197" lon="104.7176963"><ele>825.37</ele><time>2026-05-15T18:33:30.000Z</time></trkpt>
        <trkpt lat="28.3943598" lon="104.7177353"><ele>828.25</ele><time>2026-05-15T18:33:46.000Z</time></trkpt>
        <trkpt lat="28.3943342" lon="104.7178376"><ele>831.28</ele><time>2026-05-15T18:34:04.000Z</time></trkpt>
        <trkpt lat="28.3943183" lon="104.7179603"><ele>834.35</ele><time>2026-05-15T18:34:22.000Z</time></trkpt>
        <trkpt lat="28.3942708" lon="104.7179397"><ele>837.7</ele><time>2026-05-15T18:34:38.000Z</time></trkpt>
        <trkpt lat="28.3942091" lon="104.7178639"><ele>838.44</ele><time>2026-05-15T18:34:54.000Z</time></trkpt>
        <trkpt lat="28.3941751" lon="104.7177526"><ele>839.87</ele><time>2026-05-15T18:35:24.000Z</time></trkpt>
        <trkpt lat="28.3941829" lon="104.7176372"><ele>842</ele><time>2026-05-15T18:35:40.000Z</time></trkpt>
        <trkpt lat="28.3941409" lon="104.7175484"><ele>846.05</ele><time>2026-05-15T18:36:14.000Z</time></trkpt>
        <trkpt lat="28.3940821" lon="104.7174591"><ele>850.78</ele><time>2026-05-15T18:36:40.000Z</time></trkpt>
        <trkpt lat="28.3940079" lon="104.7173935"><ele>853.93</ele><time>2026-05-15T18:37:30.000Z</time></trkpt>
        <trkpt lat="28.3939218" lon="104.7173333"><ele>857.05</ele><time>2026-05-15T18:37:48.000Z</time></trkpt>
        <trkpt lat="28.3938238" lon="104.7173132"><ele>859.86</ele><time>2026-05-15T18:38:00.000Z</time></trkpt>
        <trkpt lat="28.3937279" lon="104.7173011"><ele>861.59</ele><time>2026-05-15T18:38:10.000Z</time></trkpt>
        <trkpt lat="28.3936362" lon="104.7172871"><ele>865.85</ele><time>2026-05-15T18:38:22.000Z</time></trkpt>
        <trkpt lat="28.3935351" lon="104.7172803"><ele>868.91</ele><time>2026-05-15T18:38:34.000Z</time></trkpt>
        <trkpt lat="28.3934395" lon="104.7172668"><ele>870.91</ele><time>2026-05-15T18:38:44.000Z</time></trkpt>
        <trkpt lat="28.393338" lon="104.717258"><ele>872.02</ele><time>2026-05-15T18:38:56.000Z</time></trkpt>
        <trkpt lat="28.3932389" lon="104.7172289"><ele>872.09</ele><time>2026-05-15T18:39:08.000Z</time></trkpt>
        <trkpt lat="28.3931648" lon="104.7171613"><ele>872.22</ele><time>2026-05-15T18:39:20.000Z</time></trkpt>
        <trkpt lat="28.3930901" lon="104.7170941"><ele>872.97</ele><time>2026-05-15T18:39:36.000Z</time></trkpt>
        <trkpt lat="28.3930294" lon="104.7170015"><ele>875.19</ele><time>2026-05-15T18:39:54.000Z</time></trkpt>
        <trkpt lat="28.3929738" lon="104.7169077"><ele>875.92</ele><time>2026-05-15T18:40:10.000Z</time></trkpt>
        <trkpt lat="28.3929038" lon="104.7168404"><ele>878.85</ele><time>2026-05-15T18:40:22.000Z</time></trkpt>
        <trkpt lat="28.3928361" lon="104.7167521"><ele>880.89</ele><time>2026-05-15T18:40:42.000Z</time></trkpt>
        <trkpt lat="28.3927492" lon="104.7166769"><ele>881.57</ele><time>2026-05-15T18:40:52.000Z</time></trkpt>
        <trkpt lat="28.3926656" lon="104.7166215"><ele>882.3</ele><time>2026-05-15T18:41:02.000Z</time></trkpt>
        <trkpt lat="28.3925773" lon="104.7165768"><ele>883.69</ele><time>2026-05-15T18:41:14.000Z</time></trkpt>
        <trkpt lat="28.3924742" lon="104.7165582"><ele>885.15</ele><time>2026-05-15T18:41:36.000Z</time></trkpt>
        <trkpt lat="28.3923759" lon="104.7165583"><ele>885.72</ele><time>2026-05-15T18:41:48.000Z</time></trkpt>
        <trkpt lat="28.39228" lon="104.7165586"><ele>886.66</ele><time>2026-05-15T18:42:00.000Z</time></trkpt>
        <trkpt lat="28.3921766" lon="104.7165809"><ele>888.28</ele><time>2026-05-15T18:42:10.000Z</time></trkpt>
        <trkpt lat="28.3920752" lon="104.716579"><ele>890.33</ele><time>2026-05-15T18:42:20.000Z</time></trkpt>
        <trkpt lat="28.3919877" lon="104.7165246"><ele>891.63</ele><time>2026-05-15T18:42:34.000Z</time></trkpt>
        <trkpt lat="28.3918923" lon="104.7164776"><ele>892.66</ele><time>2026-05-15T18:42:46.000Z</time></trkpt>
        <trkpt lat="28.391802" lon="104.7164226"><ele>894.44</ele><time>2026-05-15T18:42:58.000Z</time></trkpt>
        <trkpt lat="28.391719" lon="104.7163724"><ele>895.55</ele><time>2026-05-15T18:43:14.000Z</time></trkpt>
        <trkpt lat="28.3916435" lon="104.7163146"><ele>895.9</ele><time>2026-05-15T18:43:28.000Z</time></trkpt>
        <trkpt lat="28.3915551" lon="104.71628"><ele>896.1</ele><time>2026-05-15T18:43:38.000Z</time></trkpt>
        <trkpt lat="28.3915219" lon="104.7162415"><ele>895.99</ele><time>2026-05-15T18:43:44.000Z</time></trkpt>
        <trkpt lat="28.3914492" lon="104.7162123"><ele>894.4</ele><time>2026-05-15T18:44:02.000Z</time></trkpt>
        <trkpt lat="28.3913628" lon="104.7161582"><ele>893.67</ele><time>2026-05-15T18:44:10.000Z</time></trkpt>
        <trkpt lat="28.3912674" lon="104.7161739"><ele>893.48</ele><time>2026-05-15T18:44:21.000Z</time></trkpt>
        <trkpt lat="28.3911962" lon="104.7162458"><ele>893.36</ele><time>2026-05-15T18:44:33.000Z</time></trkpt>
        <trkpt lat="28.3911228" lon="104.7163269"><ele>893.86</ele><time>2026-05-15T18:44:43.000Z</time></trkpt>
        <trkpt lat="28.3910287" lon="104.7163969"><ele>894.21</ele><time>2026-05-15T18:45:11.000Z</time></trkpt>
        <trkpt lat="28.3909311" lon="104.7163795"><ele>895.69</ele><time>2026-05-15T18:45:21.000Z</time></trkpt>
        <trkpt lat="28.3908311" lon="104.7163692"><ele>897.64</ele><time>2026-05-15T18:45:31.000Z</time></trkpt>
        <trkpt lat="28.3907308" lon="104.7163418"><ele>900.33</ele><time>2026-05-15T18:45:43.000Z</time></trkpt>
        <trkpt lat="28.3906294" lon="104.7163398"><ele>902.2</ele><time>2026-05-15T18:45:55.000Z</time></trkpt>
        <trkpt lat="28.3905338" lon="104.7163259"><ele>904.08</ele><time>2026-05-15T18:46:07.000Z</time></trkpt>
        <trkpt lat="28.3904518" lon="104.7162607"><ele>906.54</ele><time>2026-05-15T18:46:19.000Z</time></trkpt>
        <trkpt lat="28.3904066" lon="104.7161649"><ele>908.11</ele><time>2026-05-15T18:46:31.000Z</time></trkpt>
        <trkpt lat="28.3903674" lon="104.7160562"><ele>908.12</ele><time>2026-05-15T18:46:47.000Z</time></trkpt>
        <trkpt lat="28.3903271" lon="104.7159512"><ele>909.55</ele><time>2026-05-15T18:47:39.000Z</time></trkpt>
        <trkpt lat="28.3902426" lon="104.7158808"><ele>910.52</ele><time>2026-05-15T18:47:51.000Z</time></trkpt>
        <trkpt lat="28.3901407" lon="104.7158524"><ele>911.28</ele><time>2026-05-15T18:48:01.000Z</time></trkpt>
        <trkpt lat="28.3900618" lon="104.7158739"><ele>912.14</ele><time>2026-05-15T18:48:11.000Z</time></trkpt>
        <trkpt lat="28.3899695" lon="104.715902"><ele>911.45</ele><time>2026-05-15T18:48:27.000Z</time></trkpt>
        <trkpt lat="28.3898708" lon="104.7158964"><ele>910.57</ele><time>2026-05-15T18:48:45.000Z</time></trkpt>
        <trkpt lat="28.3897685" lon="104.7158874"><ele>908.86</ele><time>2026-05-15T18:48:57.000Z</time></trkpt>
        <trkpt lat="28.3896614" lon="104.7158717"><ele>908.06</ele><time>2026-05-15T18:49:11.000Z</time></trkpt>
        <trkpt lat="28.3895687" lon="104.7158425"><ele>908.13</ele><time>2026-05-15T18:49:23.000Z</time></trkpt>
        <trkpt lat="28.3895069" lon="104.7157614"><ele>908</ele><time>2026-05-15T18:49:35.000Z</time></trkpt>
        <trkpt lat="28.3894738" lon="104.7156565"><ele>907.87</ele><time>2026-05-15T18:49:47.000Z</time></trkpt>
        <trkpt lat="28.38945" lon="104.7155496"><ele>907.89</ele><time>2026-05-15T18:50:01.000Z</time></trkpt>
        <trkpt lat="28.3894184" lon="104.7154446"><ele>908.15</ele><time>2026-05-15T18:50:20.000Z</time></trkpt>
        <trkpt lat="28.3893801" lon="104.7153353"><ele>908.49</ele><time>2026-05-15T18:50:34.000Z</time></trkpt>
        <trkpt lat="28.3893225" lon="104.7154161"><ele>908.7</ele><time>2026-05-15T18:51:46.000Z</time></trkpt>
        <trkpt lat="28.3893089" lon="104.7155318"><ele>909.68</ele><time>2026-05-15T18:52:10.000Z</time></trkpt>
        <trkpt lat="28.3892485" lon="104.7156109"><ele>910.92</ele><time>2026-05-15T18:52:21.000Z</time></trkpt>
        <trkpt lat="28.3891639" lon="104.7156508"><ele>911.61</ele><time>2026-05-15T18:52:29.000Z</time></trkpt>
        <trkpt lat="28.3890641" lon="104.7156527"><ele>912.43</ele><time>2026-05-15T18:52:39.000Z</time></trkpt>
        <trkpt lat="28.3889672" lon="104.7156509"><ele>915</ele><time>2026-05-15T18:52:51.000Z</time></trkpt>
        <trkpt lat="28.388871" lon="104.7156063"><ele>918.04</ele><time>2026-05-15T18:53:47.000Z</time></trkpt>
        <trkpt lat="28.3887829" lon="104.7155382"><ele>916.82</ele><time>2026-05-15T18:54:01.000Z</time></trkpt>
        <trkpt lat="28.3887052" lon="104.7154522"><ele>917.62</ele><time>2026-05-15T18:54:15.000Z</time></trkpt>
        <trkpt lat="28.3886231" lon="104.7153717"><ele>919.8</ele><time>2026-05-15T18:54:29.000Z</time></trkpt>
        <trkpt lat="28.388528" lon="104.7153298"><ele>921.38</ele><time>2026-05-15T18:54:41.000Z</time></trkpt>
        <trkpt lat="28.3884238" lon="104.7153174"><ele>921.2</ele><time>2026-05-15T18:54:51.000Z</time></trkpt>
        <trkpt lat="28.3883296" lon="104.7152831"><ele>921.81</ele><time>2026-05-15T18:55:03.000Z</time></trkpt>
        <trkpt lat="28.3882467" lon="104.7152142"><ele>921.03</ele><time>2026-05-15T18:55:15.000Z</time></trkpt>
        <trkpt lat="28.3881663" lon="104.7151448"><ele>921.62</ele><time>2026-05-15T18:55:29.000Z</time></trkpt>
        <trkpt lat="28.3880739" lon="104.7151238"><ele>920.77</ele><time>2026-05-15T18:55:44.000Z</time></trkpt>
        <trkpt lat="28.3879776" lon="104.7150926"><ele>919.14</ele><time>2026-05-15T18:56:02.000Z</time></trkpt>
        <trkpt lat="28.3878821" lon="104.7150524"><ele>916.59</ele><time>2026-05-15T18:56:16.000Z</time></trkpt>
        <trkpt lat="28.387786" lon="104.7150246"><ele>914.74</ele><time>2026-05-15T18:56:28.000Z</time></trkpt>
        <trkpt lat="28.3876868" lon="104.7150284"><ele>914.73</ele><time>2026-05-15T18:56:38.000Z</time></trkpt>
        <trkpt lat="28.387621" lon="104.7150394"><ele>916.62</ele><time>2026-05-15T18:56:44.000Z</time></trkpt>
        <trkpt lat="28.3875357" lon="104.7150702"><ele>918.3</ele><time>2026-05-15T18:56:59.000Z</time></trkpt>
        <trkpt lat="28.3874403" lon="104.7150501"><ele>921.82</ele><time>2026-05-15T18:57:11.000Z</time></trkpt>
        <trkpt lat="28.3873417" lon="104.7150189"><ele>922.97</ele><time>2026-05-15T18:57:23.000Z</time></trkpt>
        <trkpt lat="28.3872406" lon="104.7150078"><ele>923.64</ele><time>2026-05-15T18:57:45.000Z</time></trkpt>
        <trkpt lat="28.3871445" lon="104.7150096"><ele>924.11</ele><time>2026-05-15T18:57:57.000Z</time></trkpt>
        <trkpt lat="28.3870471" lon="104.7149927"><ele>925.39</ele><time>2026-05-15T18:58:11.000Z</time></trkpt>
        <trkpt lat="28.3869443" lon="104.7149677"><ele>925.65</ele><time>2026-05-15T18:58:53.000Z</time></trkpt>
        <trkpt lat="28.3868579" lon="104.7149082"><ele>930.47</ele><time>2026-05-15T18:59:05.000Z</time></trkpt>
        <trkpt lat="28.3868082" lon="104.714804"><ele>934.54</ele><time>2026-05-15T18:59:27.000Z</time></trkpt>
        <trkpt lat="28.3867506" lon="104.7147018"><ele>939.65</ele><time>2026-05-15T18:59:39.000Z</time></trkpt>
        <trkpt lat="28.3867356" lon="104.7146566"><ele>944.17</ele><time>2026-05-15T18:59:49.000Z</time></trkpt>
        <trkpt lat="28.3866966" lon="104.7145794"><ele>941.69</ele><time>2026-05-15T19:03:53.000Z</time></trkpt>
        <trkpt lat="28.3866439" lon="104.714486"><ele>940.12</ele><time>2026-05-15T19:04:07.000Z</time></trkpt>
        <trkpt lat="28.3865741" lon="104.7144109"><ele>939.43</ele><time>2026-05-15T19:04:23.000Z</time></trkpt>
        <trkpt lat="28.3865359" lon="104.7143084"><ele>940.51</ele><time>2026-05-15T19:04:43.000Z</time></trkpt>
        <trkpt lat="28.3864794" lon="104.714225"><ele>939.84</ele><time>2026-05-15T19:04:55.000Z</time></trkpt>
        <trkpt lat="28.3864257" lon="104.7141326"><ele>940.55</ele><time>2026-05-15T19:05:09.000Z</time></trkpt>
        <trkpt lat="28.3863432" lon="104.714095"><ele>940.92</ele><time>2026-05-15T19:05:25.000Z</time></trkpt>
        <trkpt lat="28.3862579" lon="104.7141387"><ele>942.35</ele><time>2026-05-15T19:05:39.000Z</time></trkpt>
        <trkpt lat="28.3861576" lon="104.7141798"><ele>943.26</ele><time>2026-05-15T19:05:57.000Z</time></trkpt>
        <trkpt lat="28.3860568" lon="104.7141863"><ele>946.21</ele><time>2026-05-15T19:06:13.000Z</time></trkpt>
        <trkpt lat="28.3859555" lon="104.7141822"><ele>949.05</ele><time>2026-05-15T19:06:31.000Z</time></trkpt>
        <trkpt lat="28.3858555" lon="104.7141872"><ele>949.73</ele><time>2026-05-15T19:06:51.000Z</time></trkpt>
        <trkpt lat="28.3857569" lon="104.7141788"><ele>949.63</ele><time>2026-05-15T19:07:07.000Z</time></trkpt>
        <trkpt lat="28.3856607" lon="104.7141529"><ele>950.3</ele><time>2026-05-15T19:07:25.000Z</time></trkpt>
        <trkpt lat="28.3855637" lon="104.7141197"><ele>950.4</ele><time>2026-05-15T19:07:41.000Z</time></trkpt>
        <trkpt lat="28.3854691" lon="104.7141009"><ele>951.11</ele><time>2026-05-15T19:07:55.000Z</time></trkpt>
        <trkpt lat="28.3853734" lon="104.7141225"><ele>951.51</ele><time>2026-05-15T19:08:19.000Z</time></trkpt>
        <trkpt lat="28.3852778" lon="104.7141459"><ele>952.14</ele><time>2026-05-15T19:08:59.000Z</time></trkpt>
        <trkpt lat="28.3851858" lon="104.7141596"><ele>953.49</ele><time>2026-05-15T19:09:13.000Z</time></trkpt>
        <trkpt lat="28.3850907" lon="104.7141866"><ele>956.25</ele><time>2026-05-15T19:09:29.000Z</time></trkpt>
        <trkpt lat="28.3850045" lon="104.714225"><ele>960</ele><time>2026-05-15T19:09:41.000Z</time></trkpt>
        <trkpt lat="28.3849191" lon="104.7142792"><ele>962.8</ele><time>2026-05-15T19:09:55.000Z</time></trkpt>
        <trkpt lat="28.3848216" lon="104.7143192"><ele>963.63</ele><time>2026-05-15T19:10:35.000Z</time></trkpt>
        <trkpt lat="28.3847607" lon="104.7142614"><ele>967.02</ele><time>2026-05-15T19:10:49.000Z</time></trkpt>
        <trkpt lat="28.3847823" lon="104.7141661"><ele>969.7</ele><time>2026-05-15T19:10:59.000Z</time></trkpt>
        <trkpt lat="28.3848216" lon="104.7140503"><ele>971.59</ele><time>2026-05-15T19:11:10.000Z</time></trkpt>
        <trkpt lat="28.3848506" lon="104.7139298"><ele>972.66</ele><time>2026-05-15T19:11:22.000Z</time></trkpt>
        <trkpt lat="28.3848768" lon="104.7138161"><ele>973.66</ele><time>2026-05-15T19:11:32.000Z</time></trkpt>
        <trkpt lat="28.3848964" lon="104.7136953"><ele>974.48</ele><time>2026-05-15T19:11:42.000Z</time></trkpt>
        <trkpt lat="28.3849258" lon="104.7135797"><ele>975.54</ele><time>2026-05-15T19:11:54.000Z</time></trkpt>
        <trkpt lat="28.3849726" lon="104.7134866"><ele>975.7</ele><time>2026-05-15T19:12:02.000Z</time></trkpt>
        <trkpt lat="28.3850205" lon="104.7133985"><ele>975.13</ele><time>2026-05-15T19:12:10.000Z</time></trkpt>
        <trkpt lat="28.3850297" lon="104.7132941"><ele>974.39</ele><time>2026-05-15T19:12:24.000Z</time></trkpt>
        <trkpt lat="28.385063" lon="104.7131826"><ele>975.12</ele><time>2026-05-15T19:12:32.000Z</time></trkpt>
        <trkpt lat="28.3850874" lon="104.7130644"><ele>975.82</ele><time>2026-05-15T19:12:44.000Z</time></trkpt>
        <trkpt lat="28.385083" lon="104.7129522"><ele>977.64</ele><time>2026-05-15T19:12:54.000Z</time></trkpt>
        <trkpt lat="28.3850483" lon="104.7128495"><ele>978.41</ele><time>2026-05-15T19:13:04.000Z</time></trkpt>
        <trkpt lat="28.3850309" lon="104.71273"><ele>979.61</ele><time>2026-05-15T19:13:16.000Z</time></trkpt>
        <trkpt lat="28.3850035" lon="104.7126251"><ele>979.85</ele><time>2026-05-15T19:13:24.000Z</time></trkpt>
        <trkpt lat="28.3849644" lon="104.7125173"><ele>979.34</ele><time>2026-05-15T19:13:32.000Z</time></trkpt>
        <trkpt lat="28.3849461" lon="104.7124033"><ele>979.27</ele><time>2026-05-15T19:13:40.000Z</time></trkpt>
        <trkpt lat="28.3849504" lon="104.7122954"><ele>979.79</ele><time>2026-05-15T19:13:48.000Z</time></trkpt>
        <trkpt lat="28.3849558" lon="104.7121814"><ele>980.21</ele><time>2026-05-15T19:13:56.000Z</time></trkpt>
        <trkpt lat="28.3849507" lon="104.7120705"><ele>980.83</ele><time>2026-05-15T19:14:04.000Z</time></trkpt>
        <trkpt lat="28.3849584" lon="104.7119604"><ele>981.49</ele><time>2026-05-15T19:14:14.000Z</time></trkpt>
        <trkpt lat="28.3849667" lon="104.7118437"><ele>981.01</ele><time>2026-05-15T19:14:22.000Z</time></trkpt>
        <trkpt lat="28.3849838" lon="104.7117301"><ele>980.44</ele><time>2026-05-15T19:14:30.000Z</time></trkpt>
        <trkpt lat="28.3849947" lon="104.7116187"><ele>979.7</ele><time>2026-05-15T19:14:38.000Z</time></trkpt>
        <trkpt lat="28.3850011" lon="104.7115031"><ele>979.17</ele><time>2026-05-15T19:14:46.000Z</time></trkpt>
        <trkpt lat="28.3849979" lon="104.7113923"><ele>978.19</ele><time>2026-05-15T19:14:54.000Z</time></trkpt>
        <trkpt lat="28.3850022" lon="104.7112753"><ele>977.72</ele><time>2026-05-15T19:15:02.000Z</time></trkpt>
        <trkpt lat="28.3850409" lon="104.7111663"><ele>978.08</ele><time>2026-05-15T19:15:10.000Z</time></trkpt>
        <trkpt lat="28.3851099" lon="104.7110839"><ele>978.41</ele><time>2026-05-15T19:15:18.000Z</time></trkpt>
        <trkpt lat="28.3851864" lon="104.7109952"><ele>978.57</ele><time>2026-05-15T19:15:28.000Z</time></trkpt>
        <trkpt lat="28.38526" lon="104.710919"><ele>978.36</ele><time>2026-05-15T19:15:34.000Z</time></trkpt>
        <trkpt lat="28.385327" lon="104.7108436"><ele>979.09</ele><time>2026-05-15T19:15:42.000Z</time></trkpt>
        <trkpt lat="28.3854119" lon="104.7107998"><ele>979.54</ele><time>2026-05-15T19:15:50.000Z</time></trkpt>
        <trkpt lat="28.3855047" lon="104.7107864"><ele>979.54</ele><time>2026-05-15T19:15:58.000Z</time></trkpt>
        <trkpt lat="28.3855986" lon="104.710763"><ele>979.84</ele><time>2026-05-15T19:16:06.000Z</time></trkpt>
        <trkpt lat="28.3856906" lon="104.7107378"><ele>979.85</ele><time>2026-05-15T19:16:14.000Z</time></trkpt>
        <trkpt lat="28.3857901" lon="104.7107292"><ele>979.95</ele><time>2026-05-15T19:16:22.000Z</time></trkpt>
        <trkpt lat="28.3858911" lon="104.7107297"><ele>980.48</ele><time>2026-05-15T19:16:30.000Z</time></trkpt>
        <trkpt lat="28.385985" lon="104.710752"><ele>981.74</ele><time>2026-05-15T19:16:38.000Z</time></trkpt>
        <trkpt lat="28.3860874" lon="104.7107779"><ele>982.84</ele><time>2026-05-15T19:16:48.000Z</time></trkpt>
        <trkpt lat="28.3861916" lon="104.7108104"><ele>983.78</ele><time>2026-05-15T19:16:58.000Z</time></trkpt>
        <trkpt lat="28.3862984" lon="104.7108427"><ele>984.18</ele><time>2026-05-15T19:17:08.000Z</time></trkpt>
        <trkpt lat="28.3863962" lon="104.7108841"><ele>984.12</ele><time>2026-05-15T19:17:18.000Z</time></trkpt>
        <trkpt lat="28.3864945" lon="104.7108894"><ele>984.81</ele><time>2026-05-15T19:17:28.000Z</time></trkpt>
        <trkpt lat="28.3865893" lon="104.7108435"><ele>985.26</ele><time>2026-05-15T19:17:38.000Z</time></trkpt>
        <trkpt lat="28.3866787" lon="104.7107813"><ele>985.57</ele><time>2026-05-15T19:17:48.000Z</time></trkpt>
        <trkpt lat="28.3867657" lon="104.7107305"><ele>986.57</ele><time>2026-05-15T19:17:58.000Z</time></trkpt>
        <trkpt lat="28.3868543" lon="104.7107017"><ele>987.72</ele><time>2026-05-15T19:18:08.000Z</time></trkpt>
        <trkpt lat="28.38695" lon="104.7106889"><ele>988.77</ele><time>2026-05-15T19:18:18.000Z</time></trkpt>
        <trkpt lat="28.3870466" lon="104.7106944"><ele>990.63</ele><time>2026-05-15T19:18:28.000Z</time></trkpt>
        <trkpt lat="28.3871283" lon="104.7107408"><ele>993.05</ele><time>2026-05-15T19:18:38.000Z</time></trkpt>
        <trkpt lat="28.3872162" lon="104.7107802"><ele>995.35</ele><time>2026-05-15T19:18:48.000Z</time></trkpt>
        <trkpt lat="28.3873057" lon="104.7107887"><ele>997.71</ele><time>2026-05-15T19:18:56.000Z</time></trkpt>
        <trkpt lat="28.3874049" lon="104.7107806"><ele>998.6</ele><time>2026-05-15T19:19:06.000Z</time></trkpt>
        <trkpt lat="28.3875044" lon="104.7107678"><ele>998.28</ele><time>2026-05-15T19:19:16.000Z</time></trkpt>
        <trkpt lat="28.3876079" lon="104.7107632"><ele>998.57</ele><time>2026-05-15T19:19:26.000Z</time></trkpt>
        <trkpt lat="28.3877106" lon="104.7107866"><ele>998.08</ele><time>2026-05-15T19:19:36.000Z</time></trkpt>
        <trkpt lat="28.3878044" lon="104.7108125"><ele>997.27</ele><time>2026-05-15T19:19:44.000Z</time></trkpt>
        <trkpt lat="28.3879035" lon="104.7108535"><ele>995.81</ele><time>2026-05-15T19:19:54.000Z</time></trkpt>
        <trkpt lat="28.388002" lon="104.7108935"><ele>994.66</ele><time>2026-05-15T19:20:04.000Z</time></trkpt>
        <trkpt lat="28.3880918" lon="104.7109526"><ele>993.86</ele><time>2026-05-15T19:20:14.000Z</time></trkpt>
        <trkpt lat="28.3881779" lon="104.7110172"><ele>993.37</ele><time>2026-05-15T19:20:24.000Z</time></trkpt>
        <trkpt lat="28.3882622" lon="104.7110859"><ele>993.19</ele><time>2026-05-15T19:20:34.000Z</time></trkpt>
        <trkpt lat="28.388357" lon="104.7111485"><ele>992.91</ele><time>2026-05-15T19:20:44.000Z</time></trkpt>
        <trkpt lat="28.3884408" lon="104.7112064"><ele>992.69</ele><time>2026-05-15T19:20:52.000Z</time></trkpt>
        <trkpt lat="28.3885256" lon="104.7112454"><ele>992.31</ele><time>2026-05-15T19:21:00.000Z</time></trkpt>
        <trkpt lat="28.3886219" lon="104.7112933"><ele>991.72</ele><time>2026-05-15T19:21:10.000Z</time></trkpt>
        <trkpt lat="28.3887097" lon="104.7113401"><ele>990.8</ele><time>2026-05-15T19:21:18.000Z</time></trkpt>
        <trkpt lat="28.3887932" lon="104.7113844"><ele>990.59</ele><time>2026-05-15T19:21:26.000Z</time></trkpt>
        <trkpt lat="28.3888783" lon="104.7114281"><ele>991.11</ele><time>2026-05-15T19:21:34.000Z</time></trkpt>
        <trkpt lat="28.388966" lon="104.7114674"><ele>991.47</ele><time>2026-05-15T19:21:42.000Z</time></trkpt>
        <trkpt lat="28.3890495" lon="104.7115103"><ele>991.69</ele><time>2026-05-15T19:21:50.000Z</time></trkpt>
        <trkpt lat="28.3891299" lon="104.7115644"><ele>992.08</ele><time>2026-05-15T19:21:58.000Z</time></trkpt>
        <trkpt lat="28.3892067" lon="104.7116264"><ele>992.75</ele><time>2026-05-15T19:22:06.000Z</time></trkpt>
        <trkpt lat="28.3892757" lon="104.7116965"><ele>993.52</ele><time>2026-05-15T19:22:14.000Z</time></trkpt>
        <trkpt lat="28.3893461" lon="104.7117811"><ele>993.9</ele><time>2026-05-15T19:22:24.000Z</time></trkpt>
        <trkpt lat="28.3894159" lon="104.7118606"><ele>994.38</ele><time>2026-05-15T19:22:32.000Z</time></trkpt>
        <trkpt lat="28.3894882" lon="104.7119262"><ele>995.43</ele><time>2026-05-15T19:22:40.000Z</time></trkpt>
        <trkpt lat="28.3895688" lon="104.712005"><ele>996.41</ele><time>2026-05-15T19:22:50.000Z</time></trkpt>
        <trkpt lat="28.3896293" lon="104.7120881"><ele>997.45</ele><time>2026-05-15T19:22:58.000Z</time></trkpt>
        <trkpt lat="28.3896766" lon="104.7121802"><ele>998.16</ele><time>2026-05-15T19:23:06.000Z</time></trkpt>
        <trkpt lat="28.3897321" lon="104.7122861"><ele>998.13</ele><time>2026-05-15T19:23:16.000Z</time></trkpt>
        <trkpt lat="28.3897853" lon="104.7123968"><ele>997.86</ele><time>2026-05-15T19:23:26.000Z</time></trkpt>
        <trkpt lat="28.3898446" lon="104.7125038"><ele>997.02</ele><time>2026-05-15T19:23:36.000Z</time></trkpt>
        <trkpt lat="28.3899069" lon="104.7125921"><ele>996.15</ele><time>2026-05-15T19:23:44.000Z</time></trkpt>
        <trkpt lat="28.3899854" lon="104.7126742"><ele>995.24</ele><time>2026-05-15T19:23:54.000Z</time></trkpt>
        <trkpt lat="28.3900709" lon="104.7127534"><ele>994.39</ele><time>2026-05-15T19:24:04.000Z</time></trkpt>
        <trkpt lat="28.3901479" lon="104.712821"><ele>993.9</ele><time>2026-05-15T19:24:12.000Z</time></trkpt>
        <trkpt lat="28.3902298" lon="104.7128867"><ele>993.33</ele><time>2026-05-15T19:24:20.000Z</time></trkpt>
        <trkpt lat="28.3903162" lon="104.7129407"><ele>993.06</ele><time>2026-05-15T19:24:28.000Z</time></trkpt>
        <trkpt lat="28.390412" lon="104.7129663"><ele>992.58</ele><time>2026-05-15T19:24:36.000Z</time></trkpt>
        <trkpt lat="28.3905057" lon="104.712973"><ele>991.68</ele><time>2026-05-15T19:24:44.000Z</time></trkpt>
        <trkpt lat="28.3906144" lon="104.7129728"><ele>990.48</ele><time>2026-05-15T19:24:54.000Z</time></trkpt>
        <trkpt lat="28.3907175" lon="104.7129602"><ele>989.32</ele><time>2026-05-15T19:25:04.000Z</time></trkpt>
        <trkpt lat="28.3908112" lon="104.7129279"><ele>988.81</ele><time>2026-05-15T19:25:12.000Z</time></trkpt>
        <trkpt lat="28.3909026" lon="104.712889"><ele>987.38</ele><time>2026-05-15T19:25:20.000Z</time></trkpt>
        <trkpt lat="28.3909962" lon="104.712862"><ele>985.95</ele><time>2026-05-15T19:25:28.000Z</time></trkpt>
        <trkpt lat="28.3911025" lon="104.7128485"><ele>984.67</ele><time>2026-05-15T19:25:38.000Z</time></trkpt>
        <trkpt lat="28.3911958" lon="104.7128904"><ele>984.15</ele><time>2026-05-15T19:25:48.000Z</time></trkpt>
        <trkpt lat="28.3912575" lon="104.7129895"><ele>984.98</ele><time>2026-05-15T19:25:58.000Z</time></trkpt>
        <trkpt lat="28.3912981" lon="104.7130976"><ele>986.65</ele><time>2026-05-15T19:26:06.000Z</time></trkpt>
        <trkpt lat="28.3913456" lon="104.7131913"><ele>987.83</ele><time>2026-05-15T19:26:14.000Z</time></trkpt>
        <trkpt lat="28.3914032" lon="104.7132765"><ele>988.11</ele><time>2026-05-15T19:26:22.000Z</time></trkpt>
        <trkpt lat="28.3914618" lon="104.7133715"><ele>988.34</ele><time>2026-05-15T19:26:32.000Z</time></trkpt>
        <trkpt lat="28.3914955" lon="104.7134836"><ele>988.71</ele><time>2026-05-15T19:26:42.000Z</time></trkpt>
        <trkpt lat="28.3915304" lon="104.7135978"><ele>989.27</ele><time>2026-05-15T19:26:52.000Z</time></trkpt>
        <trkpt lat="28.3915857" lon="104.7136881"><ele>989.96</ele><time>2026-05-15T19:27:02.000Z</time></trkpt>
        <trkpt lat="28.3916626" lon="104.7137561"><ele>990.86</ele><time>2026-05-15T19:27:12.000Z</time></trkpt>
        <trkpt lat="28.3917638" lon="104.7137862"><ele>991.21</ele><time>2026-05-15T19:27:22.000Z</time></trkpt>
        <trkpt lat="28.3918668" lon="104.7137742"><ele>990.81</ele><time>2026-05-15T19:27:30.000Z</time></trkpt>
        <trkpt lat="28.3919687" lon="104.7137242"><ele>989.91</ele><time>2026-05-15T19:27:40.000Z</time></trkpt>
        <trkpt lat="28.3920574" lon="104.7136464"><ele>989.61</ele><time>2026-05-15T19:27:50.000Z</time></trkpt>
        <trkpt lat="28.3921558" lon="104.7136562"><ele>989.95</ele><time>2026-05-15T19:28:00.000Z</time></trkpt>
        <trkpt lat="28.3922255" lon="104.7137365"><ele>989.83</ele><time>2026-05-15T19:28:08.000Z</time></trkpt>
        <trkpt lat="28.3922696" lon="104.713854"><ele>989.83</ele><time>2026-05-15T19:28:18.000Z</time></trkpt>
        <trkpt lat="28.3923438" lon="104.7138755"><ele>989.5</ele><time>2026-05-15T19:28:28.000Z</time></trkpt>
        <trkpt lat="28.3924307" lon="104.7138488"><ele>989.42</ele><time>2026-05-15T19:28:38.000Z</time></trkpt>
        <trkpt lat="28.3925182" lon="104.7137868"><ele>989.25</ele><time>2026-05-15T19:28:48.000Z</time></trkpt>
        <trkpt lat="28.3925815" lon="104.7136934"><ele>989.43</ele><time>2026-05-15T19:28:58.000Z</time></trkpt>
        <trkpt lat="28.3926268" lon="104.7135898"><ele>990.29</ele><time>2026-05-15T19:29:24.000Z</time></trkpt>
        <trkpt lat="28.392701" lon="104.7135199"><ele>991.32</ele><time>2026-05-15T19:29:36.000Z</time></trkpt>
        <trkpt lat="28.3926562" lon="104.7135636"><ele>992.91</ele><time>2026-05-15T19:30:04.000Z</time></trkpt>
        <trkpt lat="28.3926022" lon="104.7136599"><ele>993.54</ele><time>2026-05-15T19:30:10.000Z</time></trkpt>
        <trkpt lat="28.39265" lon="104.7136692"><ele>993.28</ele><time>2026-05-15T19:30:18.000Z</time></trkpt>
        <trkpt lat="28.3926801" lon="104.7136555"><ele>991.67</ele><time>2026-05-15T19:30:22.000Z</time></trkpt>
        <trkpt lat="28.39276" lon="104.7136444"><ele>990.47</ele><time>2026-05-15T19:30:36.000Z</time></trkpt>
        <trkpt lat="28.3928739" lon="104.7136852"><ele>989.23</ele><time>2026-05-15T19:31:54.000Z</time></trkpt>
        <trkpt lat="28.3929635" lon="104.7136921"><ele>988.04</ele><time>2026-05-15T19:32:02.000Z</time></trkpt>
        <trkpt lat="28.3929968" lon="104.7136915"><ele>986.87</ele><time>2026-05-15T19:32:06.000Z</time></trkpt>
        <trkpt lat="28.3930724" lon="104.7136802"><ele>986.15</ele><time>2026-05-15T19:32:14.000Z</time></trkpt>
        <trkpt lat="28.3931626" lon="104.7136516"><ele>985.2</ele><time>2026-05-15T19:32:22.000Z</time></trkpt>
        <trkpt lat="28.3932563" lon="104.713604"><ele>984.04</ele><time>2026-05-15T19:32:30.000Z</time></trkpt>
        <trkpt lat="28.3933424" lon="104.7135429"><ele>983.12</ele><time>2026-05-15T19:32:38.000Z</time></trkpt>
        <trkpt lat="28.3934312" lon="104.7134656"><ele>982.59</ele><time>2026-05-15T19:32:48.000Z</time></trkpt>
        <trkpt lat="28.393477" lon="104.7134217"><ele>982.6</ele><time>2026-05-15T19:32:54.000Z</time></trkpt>
        <trkpt lat="28.393522" lon="104.7133465"><ele>982.5</ele><time>2026-05-15T19:33:28.000Z</time></trkpt>
        <trkpt lat="28.3935508" lon="104.7132928"><ele>981.94</ele><time>2026-05-15T19:33:36.000Z</time></trkpt>
        <trkpt lat="28.3935591" lon="104.7131922"><ele>981.53</ele><time>2026-05-15T19:33:50.000Z</time></trkpt>
        <trkpt lat="28.3935334" lon="104.7131272"><ele>980.67</ele><time>2026-05-15T19:33:58.000Z</time></trkpt>
        <trkpt lat="28.3935473" lon="104.7131877"><ele>980.31</ele><time>2026-05-15T19:34:20.000Z</time></trkpt>
        <trkpt lat="28.3936225" lon="104.7132213"><ele>979.57</ele><time>2026-05-15T19:34:32.000Z</time></trkpt>
        <trkpt lat="28.3937144" lon="104.7132125"><ele>977.63</ele><time>2026-05-15T19:34:44.000Z</time></trkpt>
        <trkpt lat="28.3937507" lon="104.7132136"><ele>974.74</ele><time>2026-05-15T19:34:48.000Z</time></trkpt>
        <trkpt lat="28.3938112" lon="104.7131668"><ele>972.56</ele><time>2026-05-15T19:35:04.000Z</time></trkpt>
        <trkpt lat="28.3938462" lon="104.7130913"><ele>970.21</ele><time>2026-05-15T19:35:14.000Z</time></trkpt>
        <trkpt lat="28.393887" lon="104.7131434"><ele>968.34</ele><time>2026-05-15T19:35:36.000Z</time></trkpt>
        <trkpt lat="28.3939549" lon="104.7131214"><ele>965.99</ele><time>2026-05-15T19:35:52.000Z</time></trkpt>
        <trkpt lat="28.3940324" lon="104.7130508"><ele>962.22</ele><time>2026-05-15T19:36:06.000Z</time></trkpt>
        <trkpt lat="28.394121" lon="104.7129839"><ele>957.1</ele><time>2026-05-15T19:36:14.000Z</time></trkpt>
        <trkpt lat="28.3942134" lon="104.7129747"><ele>954.39</ele><time>2026-05-15T19:36:32.000Z</time></trkpt>
        <trkpt lat="28.3943003" lon="104.7129431"><ele>953.56</ele><time>2026-05-15T19:36:40.000Z</time></trkpt>
        <trkpt lat="28.3943923" lon="104.7129103"><ele>950.25</ele><time>2026-05-15T19:36:48.000Z</time></trkpt>
        <trkpt lat="28.3944816" lon="104.7128642"><ele>947.24</ele><time>2026-05-15T19:36:58.000Z</time></trkpt>
        <trkpt lat="28.3945801" lon="104.7128284"><ele>944.58</ele><time>2026-05-15T19:37:08.000Z</time></trkpt>
        <trkpt lat="28.3946745" lon="104.7128437"><ele>943.15</ele><time>2026-05-15T19:39:08.000Z</time></trkpt>
        <trkpt lat="28.3947705" lon="104.7128141"><ele>943.13</ele><time>2026-05-15T19:39:22.000Z</time></trkpt>
        <trkpt lat="28.3948562" lon="104.7127631"><ele>944.08</ele><time>2026-05-15T19:39:40.000Z</time></trkpt>
        <trkpt lat="28.3949438" lon="104.7127281"><ele>945.68</ele><time>2026-05-15T19:40:18.000Z</time></trkpt>
        <trkpt lat="28.3950335" lon="104.7127212"><ele>947.58</ele><time>2026-05-15T19:40:38.000Z</time></trkpt>
        <trkpt lat="28.3951243" lon="104.7127334"><ele>950.28</ele><time>2026-05-15T19:41:34.000Z</time></trkpt>
        <trkpt lat="28.3952258" lon="104.7127371"><ele>953.83</ele><time>2026-05-15T19:41:58.000Z</time></trkpt>
        <trkpt lat="28.395323" lon="104.7127218"><ele>957.31</ele><time>2026-05-15T19:42:28.000Z</time></trkpt>
        <trkpt lat="28.3953781" lon="104.7126857"><ele>961.04</ele><time>2026-05-15T19:42:42.000Z</time></trkpt>
        <trkpt lat="28.3954646" lon="104.7126585"><ele>963.5</ele><time>2026-05-15T19:43:14.000Z</time></trkpt>
        <trkpt lat="28.3955579" lon="104.7126168"><ele>966.92</ele><time>2026-05-15T19:43:32.000Z</time></trkpt>
        <trkpt lat="28.3955993" lon="104.7126166"><ele>969.31</ele><time>2026-05-15T19:43:36.000Z</time></trkpt>
        <trkpt lat="28.3956711" lon="104.7125873"><ele>970.79</ele><time>2026-05-15T19:44:08.000Z</time></trkpt>
        <trkpt lat="28.395723" lon="104.7124811"><ele>972.92</ele><time>2026-05-15T19:45:30.000Z</time></trkpt>
        <trkpt lat="28.3957475" lon="104.7123814"><ele>976.78</ele><time>2026-05-15T19:45:52.000Z</time></trkpt>
        <trkpt lat="28.3957613" lon="104.7122781"><ele>978.65</ele><time>2026-05-15T19:46:10.000Z</time></trkpt>
        <trkpt lat="28.3957627" lon="104.7121675"><ele>978.39</ele><time>2026-05-15T19:46:24.000Z</time></trkpt>
        <trkpt lat="28.3957493" lon="104.7120615"><ele>976.12</ele><time>2026-05-15T19:47:12.000Z</time></trkpt>
        <trkpt lat="28.3958126" lon="104.712008"><ele>973.5</ele><time>2026-05-15T19:47:44.000Z</time></trkpt>
        <trkpt lat="28.3958816" lon="104.7119378"><ele>969.77</ele><time>2026-05-15T19:49:56.000Z</time></trkpt>
        <trkpt lat="28.3957949" lon="104.7118963"><ele>965.39</ele><time>2026-05-15T19:52:18.000Z</time></trkpt>
        <trkpt lat="28.3957052" lon="104.7119124"><ele>963.92</ele><time>2026-05-15T19:54:22.000Z</time></trkpt>
        <trkpt lat="28.3956159" lon="104.7118941"><ele>964.29</ele><time>2026-05-15T19:54:52.000Z</time></trkpt>
        <trkpt lat="28.3955266" lon="104.711863"><ele>964.1</ele><time>2026-05-15T19:57:18.000Z</time></trkpt>
        <trkpt lat="28.3955323" lon="104.7117602"><ele>960.84</ele><time>2026-05-15T19:58:34.000Z</time></trkpt>
        <trkpt lat="28.3954634" lon="104.7116944"><ele>957.17</ele><time>2026-05-15T19:59:22.000Z</time></trkpt>
        <trkpt lat="28.3954935" lon="104.711611"><ele>951.84</ele><time>2026-05-15T20:00:06.000Z</time></trkpt>
        <trkpt lat="28.3954664" lon="104.7114949"><ele>948.85</ele><time>2026-05-15T20:01:14.000Z</time></trkpt>
        <trkpt lat="28.3954495" lon="104.7113863"><ele>943.34</ele><time>2026-05-15T20:01:56.000Z</time></trkpt>
        <trkpt lat="28.3954663" lon="104.711277"><ele>939.09</ele><time>2026-05-15T20:03:48.000Z</time></trkpt>
        <trkpt lat="28.3954856" lon="104.7111734"><ele>935.03</ele><time>2026-05-15T20:04:02.000Z</time></trkpt>
        <trkpt lat="28.3954858" lon="104.7110663"><ele>931.88</ele><time>2026-05-15T20:04:32.000Z</time></trkpt>
        <trkpt lat="28.3954923" lon="104.7109517"><ele>929.05</ele><time>2026-05-15T20:04:52.000Z</time></trkpt>
        <trkpt lat="28.395495" lon="104.7109227"><ele>925.66</ele><time>2026-05-15T20:04:54.000Z</time></trkpt>
        <trkpt lat="28.3955188" lon="104.7108437"><ele>923.73</ele><time>2026-05-15T20:05:08.000Z</time></trkpt>
        <trkpt lat="28.3955551" lon="104.7107517"><ele>921.39</ele><time>2026-05-15T20:05:40.000Z</time></trkpt>
        <trkpt lat="28.3954646" lon="104.7107618"><ele>917.7</ele><time>2026-05-15T20:07:26.000Z</time></trkpt>
        <trkpt lat="28.3954535" lon="104.7107696"><ele>912.91</ele><time>2026-05-15T20:07:30.000Z</time></trkpt>
        <trkpt lat="28.395361" lon="104.710788"><ele>910.28</ele><time>2026-05-15T20:08:30.000Z</time></trkpt>
        <trkpt lat="28.3953271" lon="104.7108873"><ele>907.83</ele><time>2026-05-15T20:09:00.000Z</time></trkpt>
        <trkpt lat="28.3953168" lon="104.7109083"><ele>903.96</ele><time>2026-05-15T20:09:04.000Z</time></trkpt>
        <trkpt lat="28.3952449" lon="104.7109167"><ele>901.59</ele><time>2026-05-15T20:09:22.000Z</time></trkpt>
        <trkpt lat="28.3951649" lon="104.7109606"><ele>898.13</ele><time>2026-05-15T20:09:54.000Z</time></trkpt>
        <trkpt lat="28.3951487" lon="104.7109668"><ele>896.23</ele><time>2026-05-15T20:09:56.000Z</time></trkpt>
        <trkpt lat="28.3950858" lon="104.7109923"><ele>895.04</ele><time>2026-05-15T20:10:18.000Z</time></trkpt>
        <trkpt lat="28.3950151" lon="104.7110498"><ele>892.23</ele><time>2026-05-15T20:10:46.000Z</time></trkpt>
        <trkpt lat="28.3949222" lon="104.7110963"><ele>888.95</ele><time>2026-05-15T20:11:54.000Z</time></trkpt>
        <trkpt lat="28.394842" lon="104.711167"><ele>884</ele><time>2026-05-15T20:12:24.000Z</time></trkpt>
        <trkpt lat="28.3948401" lon="104.7111766"><ele>878.74</ele><time>2026-05-15T20:12:26.000Z</time></trkpt>
        <trkpt lat="28.3947859" lon="104.7112554"><ele>875.74</ele><time>2026-05-15T20:13:56.000Z</time></trkpt>
        <trkpt lat="28.3947935" lon="104.711309"><ele>871.69</ele><time>2026-05-15T20:14:02.000Z</time></trkpt>
        <trkpt lat="28.3947682" lon="104.7114113"><ele>867.76</ele><time>2026-05-15T20:14:18.000Z</time></trkpt>
        <trkpt lat="28.3946908" lon="104.7114418"><ele>864.78</ele><time>2026-05-15T20:14:37.000Z</time></trkpt>
        <trkpt lat="28.3945993" lon="104.7114837"><ele>863.79</ele><time>2026-05-15T20:14:49.000Z</time></trkpt>
        <trkpt lat="28.3944928" lon="104.7115157"><ele>863.55</ele><time>2026-05-15T20:14:59.000Z</time></trkpt>
        <trkpt lat="28.3944608" lon="104.7115216"><ele>865.34</ele><time>2026-05-15T20:15:01.000Z</time></trkpt>
        <trkpt lat="28.3944285" lon="104.7114407"><ele>865.21</ele><time>2026-05-15T20:15:29.000Z</time></trkpt>
        <trkpt lat="28.3944071" lon="104.711332"><ele>864.59</ele><time>2026-05-15T20:15:47.000Z</time></trkpt>
        <trkpt lat="28.3943686" lon="104.7112182"><ele>865.19</ele><time>2026-05-15T20:16:01.000Z</time></trkpt>
        <trkpt lat="28.3943338" lon="104.7111105"><ele>865.15</ele><time>2026-05-15T20:16:11.000Z</time></trkpt>
        <trkpt lat="28.3942831" lon="104.7110206"><ele>865.08</ele><time>2026-05-15T20:16:23.000Z</time></trkpt>
        <trkpt lat="28.3942057" lon="104.7109621"><ele>864.44</ele><time>2026-05-15T20:16:37.000Z</time></trkpt>
        <trkpt lat="28.3941061" lon="104.7109552"><ele>863.86</ele><time>2026-05-15T20:16:49.000Z</time></trkpt>
        <trkpt lat="28.3940009" lon="104.7109717"><ele>863.9</ele><time>2026-05-15T20:17:01.000Z</time></trkpt>
        <trkpt lat="28.3939144" lon="104.7109288"><ele>863.48</ele><time>2026-05-15T20:17:11.000Z</time></trkpt>
        <trkpt lat="28.3938872" lon="104.7108305"><ele>863.37</ele><time>2026-05-15T20:17:21.000Z</time></trkpt>
        <trkpt lat="28.3938824" lon="104.7107053"><ele>864.52</ele><time>2026-05-15T20:17:31.000Z</time></trkpt>
        <trkpt lat="28.3938887" lon="104.7105886"><ele>865.99</ele><time>2026-05-15T20:17:41.000Z</time></trkpt>
        <trkpt lat="28.3939361" lon="104.7104929"><ele>867.17</ele><time>2026-05-15T20:17:51.000Z</time></trkpt>
        <trkpt lat="28.3940177" lon="104.7104194"><ele>868.08</ele><time>2026-05-15T20:18:03.000Z</time></trkpt>
        <trkpt lat="28.3941023" lon="104.7103414"><ele>868.83</ele><time>2026-05-15T20:18:17.000Z</time></trkpt>
        <trkpt lat="28.3941669" lon="104.7102527"><ele>870.03</ele><time>2026-05-15T20:18:29.000Z</time></trkpt>
        <trkpt lat="28.3941858" lon="104.7101493"><ele>871.27</ele><time>2026-05-15T20:18:39.000Z</time></trkpt>
        <trkpt lat="28.3941728" lon="104.710043"><ele>871.15</ele><time>2026-05-15T20:18:49.000Z</time></trkpt>
        <trkpt lat="28.3941678" lon="104.7099313"><ele>869.5</ele><time>2026-05-15T20:18:57.000Z</time></trkpt>
        <trkpt lat="28.3941842" lon="104.7098097"><ele>869.12</ele><time>2026-05-15T20:19:05.000Z</time></trkpt>
        <trkpt lat="28.3942417" lon="104.709702"><ele>869</ele><time>2026-05-15T20:19:13.000Z</time></trkpt>
        <trkpt lat="28.3942886" lon="104.7095934"><ele>870.04</ele><time>2026-05-15T20:19:21.000Z</time></trkpt>
        <trkpt lat="28.3942948" lon="104.7094858"><ele>871.18</ele><time>2026-05-15T20:19:29.000Z</time></trkpt>
        <trkpt lat="28.3942284" lon="104.7094055"><ele>870.79</ele><time>2026-05-15T20:19:37.000Z</time></trkpt>
        <trkpt lat="28.3941196" lon="104.7093613"><ele>870.02</ele><time>2026-05-15T20:19:47.000Z</time></trkpt>
        <trkpt lat="28.3940062" lon="104.7093685"><ele>869.24</ele><time>2026-05-15T20:19:57.000Z</time></trkpt>
        <trkpt lat="28.3939036" lon="104.7093632"><ele>868.31</ele><time>2026-05-15T20:20:07.000Z</time></trkpt>
        <trkpt lat="28.3938291" lon="104.7092968"><ele>868.07</ele><time>2026-05-15T20:20:17.000Z</time></trkpt>
        <trkpt lat="28.3938141" lon="104.7092031"><ele>867.69</ele><time>2026-05-15T20:20:27.000Z</time></trkpt>
        <trkpt lat="28.3938112" lon="104.7090911"><ele>867.41</ele><time>2026-05-15T20:20:39.000Z</time></trkpt>
        <trkpt lat="28.3938431" lon="104.7089789"><ele>868.08</ele><time>2026-05-15T20:20:51.000Z</time></trkpt>
        <trkpt lat="28.3938697" lon="104.70887"><ele>869.76</ele><time>2026-05-15T20:21:01.000Z</time></trkpt>
        <trkpt lat="28.3939268" lon="104.7087667"><ele>868.96</ele><time>2026-05-15T20:21:11.000Z</time></trkpt>
        <trkpt lat="28.3940036" lon="104.7086771"><ele>870.27</ele><time>2026-05-15T20:21:21.000Z</time></trkpt>
        <trkpt lat="28.3940725" lon="104.7085773"><ele>873.06</ele><time>2026-05-15T20:21:31.000Z</time></trkpt>
        <trkpt lat="28.3941344" lon="104.7084921"><ele>875.35</ele><time>2026-05-15T20:21:41.000Z</time></trkpt>
        <trkpt lat="28.3941429" lon="104.7083899"><ele>877.33</ele><time>2026-05-15T20:21:51.000Z</time></trkpt>
        <trkpt lat="28.3941647" lon="104.7082763"><ele>877.75</ele><time>2026-05-15T20:22:03.000Z</time></trkpt>
        <trkpt lat="28.3942253" lon="104.7081954"><ele>878.23</ele><time>2026-05-15T20:22:11.000Z</time></trkpt>
        <trkpt lat="28.3943149" lon="104.7081349"><ele>878.5</ele><time>2026-05-15T20:22:21.000Z</time></trkpt>
        <trkpt lat="28.3944057" lon="104.7080927"><ele>878.72</ele><time>2026-05-15T20:22:29.000Z</time></trkpt>
        <trkpt lat="28.3944395" lon="104.7080048"><ele>879.36</ele><time>2026-05-15T20:22:41.000Z</time></trkpt>
        <trkpt lat="28.3943873" lon="104.707928"><ele>879.25</ele><time>2026-05-15T20:22:55.000Z</time></trkpt>
        <trkpt lat="28.3942953" lon="104.7078806"><ele>878.48</ele><time>2026-05-15T20:23:05.000Z</time></trkpt>
        <trkpt lat="28.3941952" lon="104.7078944"><ele>877.08</ele><time>2026-05-15T20:23:15.000Z</time></trkpt>
        <trkpt lat="28.3941085" lon="104.7079705"><ele>876.48</ele><time>2026-05-15T20:23:25.000Z</time></trkpt>
        <trkpt lat="28.3940186" lon="104.7080437"><ele>877.48</ele><time>2026-05-15T20:23:37.000Z</time></trkpt>
        <trkpt lat="28.3939331" lon="104.7081523"><ele>877.54</ele><time>2026-05-15T20:24:49.000Z</time></trkpt>
        <trkpt lat="28.3938404" lon="104.7082073"><ele>878.06</ele><time>2026-05-15T20:24:59.000Z</time></trkpt>
        <trkpt lat="28.3937458" lon="104.7082432"><ele>877.99</ele><time>2026-05-15T20:25:11.000Z</time></trkpt>
        <trkpt lat="28.3936522" lon="104.7082488"><ele>877.24</ele><time>2026-05-15T20:25:23.000Z</time></trkpt>
        <trkpt lat="28.3935671" lon="104.708209"><ele>876.56</ele><time>2026-05-15T20:25:31.000Z</time></trkpt>
        <trkpt lat="28.3935288" lon="104.7081534"><ele>874.91</ele><time>2026-05-15T20:25:39.000Z</time></trkpt>
        <trkpt lat="28.3934805" lon="104.7080733"><ele>873.01</ele><time>2026-05-15T20:26:31.000Z</time></trkpt>
        <trkpt lat="28.3934232" lon="104.7080106"><ele>870.76</ele><time>2026-05-15T20:26:43.000Z</time></trkpt>
        <trkpt lat="28.3933778" lon="104.7079255"><ele>868.58</ele><time>2026-05-15T20:27:09.000Z</time></trkpt>
        <trkpt lat="28.3933136" lon="104.7078361"><ele>866.36</ele><time>2026-05-15T20:27:19.000Z</time></trkpt>
        <trkpt lat="28.3932151" lon="104.707792"><ele>863.69</ele><time>2026-05-15T20:27:31.000Z</time></trkpt>
        <trkpt lat="28.3931121" lon="104.7077889"><ele>861.96</ele><time>2026-05-15T20:27:41.000Z</time></trkpt>
        <trkpt lat="28.3930507" lon="104.7078206"><ele>861.05</ele><time>2026-05-15T20:27:47.000Z</time></trkpt>
        <trkpt lat="28.3929945" lon="104.7078997"><ele>860.99</ele><time>2026-05-15T20:27:57.000Z</time></trkpt>
        <trkpt lat="28.3929348" lon="104.7080013"><ele>861.49</ele><time>2026-05-15T20:28:07.000Z</time></trkpt>
        <trkpt lat="28.3928714" lon="104.7080887"><ele>861.99</ele><time>2026-05-15T20:28:17.000Z</time></trkpt>
        <trkpt lat="28.3928128" lon="104.7081737"><ele>862.11</ele><time>2026-05-15T20:28:31.000Z</time></trkpt>
        <trkpt lat="28.3927968" lon="104.7082856"><ele>861.93</ele><time>2026-05-15T20:28:41.000Z</time></trkpt>
        <trkpt lat="28.3927978" lon="104.7083975"><ele>860.58</ele><time>2026-05-15T20:28:49.000Z</time></trkpt>
        <trkpt lat="28.392832" lon="104.708501"><ele>860.33</ele><time>2026-05-15T20:28:57.000Z</time></trkpt>
        <trkpt lat="28.3928592" lon="104.7085938"><ele>859.22</ele><time>2026-05-15T20:29:09.000Z</time></trkpt>
        <trkpt lat="28.3928579" lon="104.7087129"><ele>856.42</ele><time>2026-05-15T20:29:43.000Z</time></trkpt>
        <trkpt lat="28.392844" lon="104.7088263"><ele>854.17</ele><time>2026-05-15T20:29:51.000Z</time></trkpt>
        <trkpt lat="28.3928261" lon="104.7088844"><ele>852.28</ele><time>2026-05-15T20:29:57.000Z</time></trkpt>
        <trkpt lat="28.3928048" lon="104.7089823"><ele>851.56</ele><time>2026-05-15T20:30:19.000Z</time></trkpt>
        <trkpt lat="28.3927306" lon="104.7090493"><ele>848.45</ele><time>2026-05-15T20:30:31.000Z</time></trkpt>
        <trkpt lat="28.3926446" lon="104.709014"><ele>846.7</ele><time>2026-05-15T20:30:41.000Z</time></trkpt>
        <trkpt lat="28.3925459" lon="104.7089465"><ele>846.6</ele><time>2026-05-15T20:30:51.000Z</time></trkpt>
        <trkpt lat="28.3924403" lon="104.7088935"><ele>847.59</ele><time>2026-05-15T20:31:01.000Z</time></trkpt>
        <trkpt lat="28.3923373" lon="104.7088509"><ele>848.06</ele><time>2026-05-15T20:31:11.000Z</time></trkpt>
        <trkpt lat="28.3922763" lon="104.7087684"><ele>848.14</ele><time>2026-05-15T20:31:21.000Z</time></trkpt>
        <trkpt lat="28.3922102" lon="104.7086921"><ele>848.2</ele><time>2026-05-15T20:31:31.000Z</time></trkpt>
        <trkpt lat="28.392132" lon="104.7086296"><ele>847.12</ele><time>2026-05-15T20:31:41.000Z</time></trkpt>
        <trkpt lat="28.3920418" lon="104.7085986"><ele>846.08</ele><time>2026-05-15T20:31:51.000Z</time></trkpt>
        <trkpt lat="28.3919489" lon="104.7085864"><ele>844.84</ele><time>2026-05-15T20:31:59.000Z</time></trkpt>
        <trkpt lat="28.3918642" lon="104.7085452"><ele>844.19</ele><time>2026-05-15T20:32:07.000Z</time></trkpt>
        <trkpt lat="28.3918388" lon="104.7084779"><ele>842.29</ele><time>2026-05-15T20:32:15.000Z</time></trkpt>
        <trkpt lat="28.3918353" lon="104.7083719"><ele>841.05</ele><time>2026-05-15T20:32:49.000Z</time></trkpt>
        <trkpt lat="28.3918666" lon="104.7082654"><ele>839.07</ele><time>2026-05-15T20:33:03.000Z</time></trkpt>
        <trkpt lat="28.3918698" lon="104.7081968"><ele>837.9</ele><time>2026-05-15T20:33:11.000Z</time></trkpt>
        <trkpt lat="28.3918952" lon="104.7080977"><ele>836.09</ele><time>2026-05-15T20:33:33.000Z</time></trkpt>
        <trkpt lat="28.3918749" lon="104.7079853"><ele>835.01</ele><time>2026-05-15T20:33:43.000Z</time></trkpt>
        <trkpt lat="28.391803" lon="104.7079236"><ele>833.62</ele><time>2026-05-15T20:33:53.000Z</time></trkpt>
        <trkpt lat="28.3917146" lon="104.7078596"><ele>829.83</ele><time>2026-05-15T20:34:03.000Z</time></trkpt>
        <trkpt lat="28.3916113" lon="104.7078278"><ele>827.51</ele><time>2026-05-15T20:34:13.000Z</time></trkpt>
        <trkpt lat="28.3915171" lon="104.7077614"><ele>825.78</ele><time>2026-05-15T20:34:21.000Z</time></trkpt>
        <trkpt lat="28.3915142" lon="104.7076587"><ele>825.79</ele><time>2026-05-15T20:34:31.000Z</time></trkpt>
        <trkpt lat="28.3915453" lon="104.7075552"><ele>825.49</ele><time>2026-05-15T20:34:39.000Z</time></trkpt>
        <trkpt lat="28.3915773" lon="104.7074432"><ele>824.65</ele><time>2026-05-15T20:34:47.000Z</time></trkpt>
        <trkpt lat="28.391587" lon="104.7073232"><ele>823.67</ele><time>2026-05-15T20:34:57.000Z</time></trkpt>
        <trkpt lat="28.3915376" lon="104.7072397"><ele>822.21</ele><time>2026-05-15T20:35:05.000Z</time></trkpt>
        <trkpt lat="28.3914502" lon="104.7071934"><ele>820.51</ele><time>2026-05-15T20:35:13.000Z</time></trkpt>
        <trkpt lat="28.3913715" lon="104.7071321"><ele>819.59</ele><time>2026-05-15T20:35:21.000Z</time></trkpt>
        <trkpt lat="28.3913598" lon="104.7070378"><ele>817.14</ele><time>2026-05-15T20:35:29.000Z</time></trkpt>
        <trkpt lat="28.3914145" lon="104.7069404"><ele>816.49</ele><time>2026-05-15T20:35:39.000Z</time></trkpt>
        <trkpt lat="28.3914902" lon="104.7068388"><ele>816.82</ele><time>2026-05-15T20:35:49.000Z</time></trkpt>
        <trkpt lat="28.3915455" lon="104.7067756"><ele>817.21</ele><time>2026-05-15T20:35:55.000Z</time></trkpt>
        <trkpt lat="28.3916094" lon="104.7067011"><ele>817.51</ele><time>2026-05-15T20:36:05.000Z</time></trkpt>
        <trkpt lat="28.3916547" lon="104.7065977"><ele>815.82</ele><time>2026-05-15T20:36:15.000Z</time></trkpt>
        <trkpt lat="28.3916909" lon="104.7064942"><ele>813.07</ele><time>2026-05-15T20:36:23.000Z</time></trkpt>
        <trkpt lat="28.3916857" lon="104.7063891"><ele>811.18</ele><time>2026-05-15T20:36:31.000Z</time></trkpt>
        <trkpt lat="28.3916095" lon="104.7063204"><ele>809.69</ele><time>2026-05-15T20:36:41.000Z</time></trkpt>
        <trkpt lat="28.3914991" lon="104.7063196"><ele>807.84</ele><time>2026-05-15T20:36:51.000Z</time></trkpt>
        <trkpt lat="28.3913876" lon="104.7063309"><ele>806.32</ele><time>2026-05-15T20:37:01.000Z</time></trkpt>
        <trkpt lat="28.3912847" lon="104.7063042"><ele>805.29</ele><time>2026-05-15T20:37:13.000Z</time></trkpt>
        <trkpt lat="28.3911819" lon="104.706281"><ele>803.34</ele><time>2026-05-15T20:37:21.000Z</time></trkpt>
        <trkpt lat="28.3910819" lon="104.7062743"><ele>802.34</ele><time>2026-05-15T20:37:29.000Z</time></trkpt>
        <trkpt lat="28.3909859" lon="104.7062573"><ele>801.03</ele><time>2026-05-15T20:37:37.000Z</time></trkpt>
        <trkpt lat="28.3909463" lon="104.7061657"><ele>800.56</ele><time>2026-05-15T20:37:47.000Z</time></trkpt>
        <trkpt lat="28.3909746" lon="104.7060494"><ele>799.64</ele><time>2026-05-15T20:37:59.000Z</time></trkpt>
        <trkpt lat="28.3910243" lon="104.7059349"><ele>800.44</ele><time>2026-05-15T20:38:09.000Z</time></trkpt>
        <trkpt lat="28.3910746" lon="104.7058239"><ele>801.73</ele><time>2026-05-15T20:38:19.000Z</time></trkpt>
        <trkpt lat="28.391153" lon="104.7057513"><ele>802.4</ele><time>2026-05-15T20:38:27.000Z</time></trkpt>
        <trkpt lat="28.391251" lon="104.7056974"><ele>804.37</ele><time>2026-05-15T20:38:37.000Z</time></trkpt>
        <trkpt lat="28.39135" lon="104.7056553"><ele>805.34</ele><time>2026-05-15T20:38:47.000Z</time></trkpt>
        <trkpt lat="28.3914487" lon="104.7056089"><ele>805.55</ele><time>2026-05-15T20:38:59.000Z</time></trkpt>
        <trkpt lat="28.3915474" lon="104.7055719"><ele>805.02</ele><time>2026-05-15T20:39:09.000Z</time></trkpt>
        <trkpt lat="28.3916526" lon="104.7055656"><ele>805.06</ele><time>2026-05-15T20:39:23.000Z</time></trkpt>
        <trkpt lat="28.3917481" lon="104.7055611"><ele>804.96</ele><time>2026-05-15T20:39:33.000Z</time></trkpt>
        <trkpt lat="28.3918478" lon="104.705528"><ele>805.62</ele><time>2026-05-15T20:39:45.000Z</time></trkpt>
        <trkpt lat="28.3919239" lon="104.7054609"><ele>806.74</ele><time>2026-05-15T20:39:55.000Z</time></trkpt>
        <trkpt lat="28.3919763" lon="104.7053626"><ele>807.23</ele><time>2026-05-15T20:40:05.000Z</time></trkpt>
        <trkpt lat="28.3919833" lon="104.7052423"><ele>807.15</ele><time>2026-05-15T20:40:15.000Z</time></trkpt>
        <trkpt lat="28.3919303" lon="104.7051335"><ele>808.08</ele><time>2026-05-15T20:40:25.000Z</time></trkpt>
        <trkpt lat="28.3918598" lon="104.7050852"><ele>808.65</ele><time>2026-05-15T20:40:35.000Z</time></trkpt>
        <trkpt lat="28.3917609" lon="104.7050562"><ele>808.79</ele><time>2026-05-15T20:41:11.000Z</time></trkpt>
        <trkpt lat="28.3916542" lon="104.7050341"><ele>808.51</ele><time>2026-05-15T20:41:21.000Z</time></trkpt>
        <trkpt lat="28.3915631" lon="104.704984"><ele>808.4</ele><time>2026-05-15T20:41:31.000Z</time></trkpt>
        <trkpt lat="28.3914697" lon="104.7049285"><ele>807.98</ele><time>2026-05-15T20:41:41.000Z</time></trkpt>
        <trkpt lat="28.3913849" lon="104.7048747"><ele>807.37</ele><time>2026-05-15T20:41:51.000Z</time></trkpt>
        <trkpt lat="28.3912929" lon="104.7048185"><ele>807.2</ele><time>2026-05-15T20:42:01.000Z</time></trkpt>
        <trkpt lat="28.3911875" lon="104.7047858"><ele>806.6</ele><time>2026-05-15T20:42:11.000Z</time></trkpt>
        <trkpt lat="28.3910928" lon="104.7047312"><ele>805.7</ele><time>2026-05-15T20:42:21.000Z</time></trkpt>
        <trkpt lat="28.3910072" lon="104.7046841"><ele>805.67</ele><time>2026-05-15T20:42:31.000Z</time></trkpt>
        <trkpt lat="28.3909254" lon="104.7046379"><ele>805.11</ele><time>2026-05-15T20:42:41.000Z</time></trkpt>
        <trkpt lat="28.3908288" lon="104.7046058"><ele>803.43</ele><time>2026-05-15T20:42:51.000Z</time></trkpt>
        <trkpt lat="28.390736" lon="104.7045583"><ele>801.79</ele><time>2026-05-15T20:43:01.000Z</time></trkpt>
        <trkpt lat="28.3907002" lon="104.7045219"><ele>799.76</ele><time>2026-05-15T20:43:05.000Z</time></trkpt>
        <trkpt lat="28.3906413" lon="104.7044448"><ele>798.88</ele><time>2026-05-15T20:43:13.000Z</time></trkpt>
        <trkpt lat="28.3906165" lon="104.7043998"><ele>798.61</ele><time>2026-05-15T20:43:17.000Z</time></trkpt>
        <trkpt lat="28.3905726" lon="104.7043262"><ele>798.53</ele><time>2026-05-15T20:43:27.000Z</time></trkpt>
        <trkpt lat="28.3905375" lon="104.7042329"><ele>797.64</ele><time>2026-05-15T20:43:37.000Z</time></trkpt>
        <trkpt lat="28.3904949" lon="104.704128"><ele>795.84</ele><time>2026-05-15T20:43:47.000Z</time></trkpt>
        <trkpt lat="28.3904586" lon="104.7041205"><ele>793.6</ele><time>2026-05-15T20:43:53.000Z</time></trkpt>
        <trkpt lat="28.3903694" lon="104.7041563"><ele>792.33</ele><time>2026-05-15T20:44:43.000Z</time></trkpt>
        <trkpt lat="28.3902801" lon="104.7042469"><ele>789.14</ele><time>2026-05-15T20:44:53.000Z</time></trkpt>
        <trkpt lat="28.390179" lon="104.7042788"><ele>788.03</ele><time>2026-05-15T20:44:59.000Z</time></trkpt>
        <trkpt lat="28.3900818" lon="104.7042523"><ele>786.09</ele><time>2026-05-15T20:45:07.000Z</time></trkpt>
        <trkpt lat="28.3899892" lon="104.7042231"><ele>784.9</ele><time>2026-05-15T20:45:15.000Z</time></trkpt>
        <trkpt lat="28.3899158" lon="104.7042022"><ele>783.43</ele><time>2026-05-15T20:45:21.000Z</time></trkpt>
        <trkpt lat="28.3898345" lon="104.70417"><ele>782.64</ele><time>2026-05-15T20:45:31.000Z</time></trkpt>
        <trkpt lat="28.38979" lon="104.704127"><ele>781.46</ele><time>2026-05-15T20:45:35.000Z</time></trkpt>
        <trkpt lat="28.3897453" lon="104.7040406"><ele>781.17</ele><time>2026-05-15T20:45:53.000Z</time></trkpt>
        <trkpt lat="28.389736" lon="104.7039298"><ele>781.06</ele><time>2026-05-15T20:46:05.000Z</time></trkpt>
        <trkpt lat="28.3897666" lon="104.7038191"><ele>781.07</ele><time>2026-05-15T20:46:15.000Z</time></trkpt>
        <trkpt lat="28.3897983" lon="104.703704"><ele>780.87</ele><time>2026-05-15T20:46:27.000Z</time></trkpt>
        <trkpt lat="28.3898303" lon="104.7035876"><ele>779.37</ele><time>2026-05-15T20:46:37.000Z</time></trkpt>
        <trkpt lat="28.3898349" lon="104.7034722"><ele>777.61</ele><time>2026-05-15T20:46:47.000Z</time></trkpt>
        <trkpt lat="28.3898196" lon="104.7033595"><ele>775.7</ele><time>2026-05-15T20:46:55.000Z</time></trkpt>
        <trkpt lat="28.3897583" lon="104.703283"><ele>775.35</ele><time>2026-05-15T20:47:03.000Z</time></trkpt>
        <trkpt lat="28.3896583" lon="104.703281"><ele>775.77</ele><time>2026-05-15T20:47:13.000Z</time></trkpt>
        <trkpt lat="28.3895544" lon="104.7032883"><ele>774.79</ele><time>2026-05-15T20:47:21.000Z</time></trkpt>
        <trkpt lat="28.3894548" lon="104.7032889"><ele>774.29</ele><time>2026-05-15T20:47:29.000Z</time></trkpt>
        <trkpt lat="28.3893436" lon="104.7032707"><ele>774.17</ele><time>2026-05-15T20:47:39.000Z</time></trkpt>
        <trkpt lat="28.3892464" lon="104.7032793"><ele>773.64</ele><time>2026-05-15T20:47:47.000Z</time></trkpt>
        <trkpt lat="28.3891525" lon="104.703329"><ele>773.7</ele><time>2026-05-15T20:47:57.000Z</time></trkpt>
        <trkpt lat="28.3890634" lon="104.7033824"><ele>773.5</ele><time>2026-05-15T20:48:07.000Z</time></trkpt>
        <trkpt lat="28.3889668" lon="104.703441"><ele>773.44</ele><time>2026-05-15T20:48:17.000Z</time></trkpt>
        <trkpt lat="28.3888751" lon="104.7034438"><ele>772.89</ele><time>2026-05-15T20:48:25.000Z</time></trkpt>
        <trkpt lat="28.3887934" lon="104.7033904"><ele>773.25</ele><time>2026-05-15T20:48:37.000Z</time></trkpt>
        <trkpt lat="28.3887735" lon="104.7032864"><ele>772.51</ele><time>2026-05-15T20:48:47.000Z</time></trkpt>
        <trkpt lat="28.3887778" lon="104.7031715"><ele>770.59</ele><time>2026-05-15T20:48:57.000Z</time></trkpt>
        <trkpt lat="28.3887951" lon="104.7030401"><ele>766.93</ele><time>2026-05-15T20:49:07.000Z</time></trkpt>
        <trkpt lat="28.3888091" lon="104.7029218"><ele>762.16</ele><time>2026-05-15T20:49:15.000Z</time></trkpt>
        <trkpt lat="28.3888304" lon="104.7027996"><ele>759.04</ele><time>2026-05-15T20:49:25.000Z</time></trkpt>
        <trkpt lat="28.3888205" lon="104.7026875"><ele>757.44</ele><time>2026-05-15T20:49:35.000Z</time></trkpt>
        <trkpt lat="28.3887761" lon="104.7025843"><ele>754.91</ele><time>2026-05-15T20:49:45.000Z</time></trkpt>
        <trkpt lat="28.3887148" lon="104.7025016"><ele>752.53</ele><time>2026-05-15T20:49:53.000Z</time></trkpt>
        <trkpt lat="28.3886433" lon="104.702427"><ele>750.53</ele><time>2026-05-15T20:50:03.000Z</time></trkpt>
        <trkpt lat="28.3886179" lon="104.7023906"><ele>749.31</ele><time>2026-05-15T20:50:07.000Z</time></trkpt>
        <trkpt lat="28.3886123" lon="104.7022948"><ele>748.74</ele><time>2026-05-15T20:50:17.000Z</time></trkpt>
        <trkpt lat="28.3885767" lon="104.7021903"><ele>748.62</ele><time>2026-05-15T20:50:29.000Z</time></trkpt>
        <trkpt lat="28.3885253" lon="104.7021232"><ele>747.07</ele><time>2026-05-15T20:50:37.000Z</time></trkpt>
        <trkpt lat="28.3884427" lon="104.7020941"><ele>745.19</ele><time>2026-05-15T20:51:05.000Z</time></trkpt>
        <trkpt lat="28.388341" lon="104.7020921"><ele>744.18</ele><time>2026-05-15T20:51:33.000Z</time></trkpt>
        <trkpt lat="28.3882419" lon="104.7021113"><ele>743.63</ele><time>2026-05-15T20:51:45.000Z</time></trkpt>
        <trkpt lat="28.3881376" lon="104.7021348"><ele>741.54</ele><time>2026-05-15T20:52:07.000Z</time></trkpt>
        <trkpt lat="28.3880314" lon="104.702156"><ele>739.84</ele><time>2026-05-15T20:52:17.000Z</time></trkpt>
        <trkpt lat="28.3879384" lon="104.7021925"><ele>737.18</ele><time>2026-05-15T20:52:31.000Z</time></trkpt>
        <trkpt lat="28.3878479" lon="104.7021997"><ele>734.47</ele><time>2026-05-15T20:52:43.000Z</time></trkpt>
        <trkpt lat="28.3877532" lon="104.7022087"><ele>732.31</ele><time>2026-05-15T20:52:57.000Z</time></trkpt>
        <trkpt lat="28.3876529" lon="104.7022003"><ele>729.28</ele><time>2026-05-15T20:53:35.000Z</time></trkpt>
        <trkpt lat="28.3875537" lon="104.7022009"><ele>726.55</ele><time>2026-05-15T20:53:49.000Z</time></trkpt>
        <trkpt lat="28.3874646" lon="104.7022261"><ele>724.03</ele><time>2026-05-15T20:54:01.000Z</time></trkpt>
        <trkpt lat="28.3873671" lon="104.7022387"><ele>721.72</ele><time>2026-05-15T20:54:09.000Z</time></trkpt>
        <trkpt lat="28.38727" lon="104.7022459"><ele>720.46</ele><time>2026-05-15T20:54:19.000Z</time></trkpt>
        <trkpt lat="28.3871992" lon="104.7021903"><ele>717.21</ele><time>2026-05-15T20:54:35.000Z</time></trkpt>
        <trkpt lat="28.3872485" lon="104.7021399"><ele>714.97</ele><time>2026-05-15T20:55:05.000Z</time></trkpt>
        <trkpt lat="28.3873492" lon="104.702137"><ele>713.49</ele><time>2026-05-15T20:55:21.000Z</time></trkpt>
        <trkpt lat="28.3874595" lon="104.7021295"><ele>711.31</ele><time>2026-05-15T20:55:51.000Z</time></trkpt>
        <trkpt lat="28.3875689" lon="104.7020965"><ele>706.45</ele><time>2026-05-15T20:56:05.000Z</time></trkpt>
        <trkpt lat="28.3876683" lon="104.7020594"><ele>701.2</ele><time>2026-05-15T20:56:21.000Z</time></trkpt>
        <trkpt lat="28.387755" lon="104.7019761"><ele>697.01</ele><time>2026-05-15T20:56:37.000Z</time></trkpt>
        <trkpt lat="28.3877414" lon="104.7019237"><ele>697.03</ele><time>2026-05-15T20:56:41.000Z</time></trkpt>
        <trkpt lat="28.387781" lon="104.7018561"><ele>697.27</ele><time>2026-05-15T20:57:03.000Z</time></trkpt>
        <trkpt lat="28.387847" lon="104.7017901"><ele>695.88</ele><time>2026-05-15T20:57:33.000Z</time></trkpt>
        <trkpt lat="28.3878989" lon="104.7017045"><ele>691.71</ele><time>2026-05-15T20:57:57.000Z</time></trkpt>
        <trkpt lat="28.3879221" lon="104.7016439"><ele>690.49</ele><time>2026-05-15T20:58:09.000Z</time></trkpt>
        <trkpt lat="28.3879904" lon="104.7015906"><ele>690.87</ele><time>2026-05-15T20:58:45.000Z</time></trkpt>
        <trkpt lat="28.3880782" lon="104.7015558"><ele>690.74</ele><time>2026-05-15T20:58:59.000Z</time></trkpt>
        <trkpt lat="28.3881771" lon="104.7015679"><ele>690.27</ele><time>2026-05-15T20:59:15.000Z</time></trkpt>
        <trkpt lat="28.388201" lon="104.7015817"><ele>680.3</ele><time>2026-05-15T20:59:17.000Z</time></trkpt>
        <trkpt lat="28.3882592" lon="104.701527"><ele>674.55</ele><time>2026-05-15T20:59:27.000Z</time></trkpt>
        <trkpt lat="28.3882723" lon="104.701423"><ele>670.54</ele><time>2026-05-15T20:59:41.000Z</time></trkpt>
        <trkpt lat="28.3882636" lon="104.7013021"><ele>668.54</ele><time>2026-05-15T21:00:01.000Z</time></trkpt>
        <trkpt lat="28.3882638" lon="104.7011863"><ele>665.56</ele><time>2026-05-15T21:00:17.000Z</time></trkpt>
        <trkpt lat="28.3882669" lon="104.7011362"><ele>664.32</ele><time>2026-05-15T21:00:21.000Z</time></trkpt>
        <trkpt lat="28.3883132" lon="104.7010698"><ele>664.66</ele><time>2026-05-15T21:00:49.000Z</time></trkpt>
        <trkpt lat="28.3883936" lon="104.7010253"><ele>663.81</ele><time>2026-05-15T21:01:05.000Z</time></trkpt>
        <trkpt lat="28.3884782" lon="104.7009614"><ele>661.55</ele><time>2026-05-15T21:01:23.000Z</time></trkpt>
        <trkpt lat="28.3884993" lon="104.7009401"><ele>659.15</ele><time>2026-05-15T21:01:25.000Z</time></trkpt>
        <trkpt lat="28.3885471" lon="104.700881"><ele>657.32</ele><time>2026-05-15T21:01:43.000Z</time></trkpt>
        <trkpt lat="28.3886224" lon="104.7008095"><ele>654.92</ele><time>2026-05-15T21:02:07.000Z</time></trkpt>
        <trkpt lat="28.3886575" lon="104.7007111"><ele>652.69</ele><time>2026-05-15T21:02:27.000Z</time></trkpt>
        <trkpt lat="28.3886507" lon="104.7006014"><ele>651.11</ele><time>2026-05-15T21:02:43.000Z</time></trkpt>
        <trkpt lat="28.3886365" lon="104.7005738"><ele>647.87</ele><time>2026-05-15T21:02:45.000Z</time></trkpt>
        <trkpt lat="28.3885372" lon="104.7005498"><ele>646.12</ele><time>2026-05-15T21:03:08.000Z</time></trkpt>
        <trkpt lat="28.3884972" lon="104.7005259"><ele>643.69</ele><time>2026-05-15T21:03:16.000Z</time></trkpt>
        <trkpt lat="28.3885016" lon="104.7004207"><ele>641.44</ele><time>2026-05-15T21:05:06.000Z</time></trkpt>
        <trkpt lat="28.3885051" lon="104.7003077"><ele>638.24</ele><time>2026-05-15T21:05:34.000Z</time></trkpt>
        <trkpt lat="28.3885032" lon="104.7001939"><ele>635.31</ele><time>2026-05-15T21:05:46.000Z</time></trkpt>
        <trkpt lat="28.3885199" lon="104.7000896"><ele>631.58</ele><time>2026-05-15T21:05:58.000Z</time></trkpt>
        <trkpt lat="28.3885729" lon="104.7000221"><ele>628.21</ele><time>2026-05-15T21:06:12.000Z</time></trkpt>
        <trkpt lat="28.3885944" lon="104.6999323"><ele>626.28</ele><time>2026-05-15T21:06:24.000Z</time></trkpt>
        <trkpt lat="28.3885412" lon="104.6999394"><ele>624.04</ele><time>2026-05-15T21:06:32.000Z</time></trkpt>
        <trkpt lat="28.388532" lon="104.7000279"><ele>624.04</ele><time>2026-05-15T21:06:42.000Z</time></trkpt>
        <trkpt lat="28.3885464" lon="104.7001555"><ele>624.67</ele><time>2026-05-15T21:06:54.000Z</time></trkpt>
        <trkpt lat="28.388585" lon="104.7002676"><ele>628</ele><time>2026-05-15T21:07:06.000Z</time></trkpt>
        <trkpt lat="28.3886025" lon="104.7003771"><ele>630.95</ele><time>2026-05-15T21:07:24.000Z</time></trkpt>
        <trkpt lat="28.3886673" lon="104.7004718"><ele>635.54</ele><time>2026-05-15T21:08:28.000Z</time></trkpt>
        <trkpt lat="28.3887328" lon="104.7005495"><ele>634</ele><time>2026-05-15T21:09:04.000Z</time></trkpt>
        <trkpt lat="28.3887873" lon="104.7006347"><ele>631.92</ele><time>2026-05-15T21:09:20.000Z</time></trkpt>
        <trkpt lat="28.388844" lon="104.7007216"><ele>628.13</ele><time>2026-05-15T21:09:52.000Z</time></trkpt>
        <trkpt lat="28.3888972" lon="104.7008061"><ele>626.4</ele><time>2026-05-15T21:10:24.000Z</time></trkpt>
        <trkpt lat="28.3889671" lon="104.7008677"><ele>621.34</ele><time>2026-05-15T21:11:18.000Z</time></trkpt>
        <trkpt lat="28.3890427" lon="104.7009309"><ele>614.72</ele><time>2026-05-15T21:11:44.000Z</time></trkpt>
        <trkpt lat="28.3891294" lon="104.7009681"><ele>610.48</ele><time>2026-05-15T21:12:06.000Z</time></trkpt>
        <trkpt lat="28.3892138" lon="104.7010087"><ele>607.11</ele><time>2026-05-15T21:12:36.000Z</time></trkpt>
        <trkpt lat="28.3893096" lon="104.7010371"><ele>605.78</ele><time>2026-05-15T21:13:02.000Z</time></trkpt>
        <trkpt lat="28.3893308" lon="104.7011357"><ele>603.89</ele><time>2026-05-15T21:14:18.000Z</time></trkpt>
        <trkpt lat="28.3893848" lon="104.7012314"><ele>601.37</ele><time>2026-05-15T21:15:08.000Z</time></trkpt>
        <trkpt lat="28.3893928" lon="104.7013374"><ele>596.04</ele><time>2026-05-15T21:15:36.000Z</time></trkpt>
        <trkpt lat="28.3894535" lon="104.7014057"><ele>593.26</ele><time>2026-05-15T21:15:50.000Z</time></trkpt>
        <trkpt lat="28.3895198" lon="104.7014453"><ele>591.63</ele><time>2026-05-15T21:16:08.000Z</time></trkpt>
        <trkpt lat="28.3896062" lon="104.7014649"><ele>588.28</ele><time>2026-05-15T21:17:06.000Z</time></trkpt>
        <trkpt lat="28.3896844" lon="104.7015199"><ele>583.84</ele><time>2026-05-15T21:18:14.000Z</time></trkpt>
        <trkpt lat="28.3897835" lon="104.7015058"><ele>583.73</ele><time>2026-05-15T21:18:56.000Z</time></trkpt>
        <trkpt lat="28.3898499" lon="104.7015836"><ele>584.58</ele><time>2026-05-15T21:19:16.000Z</time></trkpt>
        <trkpt lat="28.389934" lon="104.701601"><ele>586.38</ele><time>2026-05-15T21:19:32.000Z</time></trkpt>
        <trkpt lat="28.3900278" lon="104.701605"><ele>585.61</ele><time>2026-05-15T21:20:00.000Z</time></trkpt>
        <trkpt lat="28.3901235" lon="104.7016341"><ele>582.07</ele><time>2026-05-15T21:20:16.000Z</time></trkpt>
        <trkpt lat="28.3902027" lon="104.7016927"><ele>578.71</ele><time>2026-05-15T21:20:44.000Z</time></trkpt>
        <trkpt lat="28.390281" lon="104.7017536"><ele>574.81</ele><time>2026-05-15T21:21:56.000Z</time></trkpt>
        <trkpt lat="28.3903709" lon="104.7017452"><ele>570.44</ele><time>2026-05-15T21:22:32.000Z</time></trkpt>
        <trkpt lat="28.3904634" lon="104.701779"><ele>567.7</ele><time>2026-05-15T21:22:44.000Z</time></trkpt>
        <trkpt lat="28.3905573" lon="104.7018147"><ele>566.05</ele><time>2026-05-15T21:22:58.000Z</time></trkpt>
        <trkpt lat="28.3906538" lon="104.7018542"><ele>564.79</ele><time>2026-05-15T21:23:24.000Z</time></trkpt>
        <trkpt lat="28.3907573" lon="104.7018804"><ele>558.89</ele><time>2026-05-15T21:23:38.000Z</time></trkpt>
        <trkpt lat="28.3908569" lon="104.7019132"><ele>560.4</ele><time>2026-05-15T21:23:50.000Z</time></trkpt>
        <trkpt lat="28.3909423" lon="104.701963"><ele>561.56</ele><time>2026-05-15T21:24:02.000Z</time></trkpt>
        <trkpt lat="28.3910254" lon="104.7020161"><ele>561.56</ele><time>2026-05-15T21:24:16.000Z</time></trkpt>
        <trkpt lat="28.3911085" lon="104.7020673"><ele>561.69</ele><time>2026-05-15T21:24:38.000Z</time></trkpt>
        <trkpt lat="28.3911526" lon="104.7020914"><ele>560.9</ele><time>2026-05-15T21:24:48.000Z</time></trkpt>
        <trkpt lat="28.3912227" lon="104.7021217"><ele>559.89</ele><time>2026-05-15T21:25:10.000Z</time></trkpt>
        <trkpt lat="28.3913128" lon="104.7021236"><ele>559.64</ele><time>2026-05-15T21:25:26.000Z</time></trkpt>
        <trkpt lat="28.3913887" lon="104.7021796"><ele>559.91</ele><time>2026-05-15T21:25:56.000Z</time></trkpt>
        <trkpt lat="28.391445" lon="104.7022662"><ele>556.58</ele><time>2026-05-15T21:26:26.000Z</time></trkpt>
        <trkpt lat="28.391524" lon="104.7023012"><ele>553.36</ele><time>2026-05-15T21:26:40.000Z</time></trkpt>
        <trkpt lat="28.3916057" lon="104.7023479"><ele>551.87</ele><time>2026-05-15T21:27:00.000Z</time></trkpt>
        <trkpt lat="28.3916875" lon="104.7024016"><ele>551.99</ele><time>2026-05-15T21:27:16.000Z</time></trkpt>
        <trkpt lat="28.3917587" lon="104.7024775"><ele>552.08</ele><time>2026-05-15T21:28:06.000Z</time></trkpt>
        <trkpt lat="28.3918475" lon="104.7025153"><ele>550.61</ele><time>2026-05-15T21:28:30.000Z</time></trkpt>
        <trkpt lat="28.3919042" lon="104.7025898"><ele>548.35</ele><time>2026-05-15T21:28:46.000Z</time></trkpt>
        <trkpt lat="28.3919863" lon="104.702613"><ele>544.87</ele><time>2026-05-15T21:29:04.000Z</time></trkpt>
        <trkpt lat="28.3920896" lon="104.702625"><ele>545.02</ele><time>2026-05-15T21:29:20.000Z</time></trkpt>
        <trkpt lat="28.3921912" lon="104.7026687"><ele>544.87</ele><time>2026-05-15T21:29:34.000Z</time></trkpt>
        <trkpt lat="28.3922888" lon="104.7026868"><ele>545.4</ele><time>2026-05-15T21:29:46.000Z</time></trkpt>
        <trkpt lat="28.3923843" lon="104.7026998"><ele>546.02</ele><time>2026-05-15T21:29:58.000Z</time></trkpt>
        <trkpt lat="28.3924789" lon="104.702702"><ele>547.11</ele><time>2026-05-15T21:30:16.000Z</time></trkpt>
        <trkpt lat="28.3925637" lon="104.7027509"><ele>547.74</ele><time>2026-05-15T21:30:36.000Z</time></trkpt>
        <trkpt lat="28.3926517" lon="104.7027939"><ele>544.64</ele><time>2026-05-15T21:30:54.000Z</time></trkpt>
        <trkpt lat="28.3927403" lon="104.7028313"><ele>543.79</ele><time>2026-05-15T21:31:12.000Z</time></trkpt>
        <trkpt lat="28.3928252" lon="104.7028938"><ele>542.7</ele><time>2026-05-15T21:31:26.000Z</time></trkpt>
        <trkpt lat="28.3929112" lon="104.7029419"><ele>542.52</ele><time>2026-05-15T21:31:38.000Z</time></trkpt>
        <trkpt lat="28.3929922" lon="104.7029958"><ele>542.63</ele><time>2026-05-15T21:31:56.000Z</time></trkpt>
        <trkpt lat="28.3930774" lon="104.7030416"><ele>541.34</ele><time>2026-05-15T21:32:08.000Z</time></trkpt>
        <trkpt lat="28.3931521" lon="104.7031067"><ele>540.23</ele><time>2026-05-15T21:33:14.000Z</time></trkpt>
        <trkpt lat="28.3932499" lon="104.7031288"><ele>538.68</ele><time>2026-05-15T21:33:32.000Z</time></trkpt>
        <trkpt lat="28.3933308" lon="104.7031761"><ele>537.62</ele><time>2026-05-15T21:33:48.000Z</time></trkpt>
        <trkpt lat="28.3934188" lon="104.7032164"><ele>536.47</ele><time>2026-05-15T21:34:06.000Z</time></trkpt>
        <trkpt lat="28.3935024" lon="104.7032633"><ele>534.48</ele><time>2026-05-15T21:34:16.000Z</time></trkpt>
        <trkpt lat="28.3935846" lon="104.7033173"><ele>534.02</ele><time>2026-05-15T21:34:26.000Z</time></trkpt>
        <trkpt lat="28.3936745" lon="104.7033404"><ele>533.99</ele><time>2026-05-15T21:34:38.000Z</time></trkpt>
        <trkpt lat="28.3937355" lon="104.7034074"><ele>534.23</ele><time>2026-05-15T21:35:04.000Z</time></trkpt>
        <trkpt lat="28.3937463" lon="104.7034246"><ele>532.89</ele><time>2026-05-15T21:35:06.000Z</time></trkpt>
        <trkpt lat="28.3938067" lon="104.7034848"><ele>531.47</ele><time>2026-05-15T21:38:08.000Z</time></trkpt>
        <trkpt lat="28.393852" lon="104.7035806"><ele>531.18</ele><time>2026-05-15T21:38:22.000Z</time></trkpt>
        <trkpt lat="28.3939321" lon="104.7036533"><ele>530.99</ele><time>2026-05-15T21:38:34.000Z</time></trkpt>
        <trkpt lat="28.394021" lon="104.7037048"><ele>530.57</ele><time>2026-05-15T21:39:00.000Z</time></trkpt>
        <trkpt lat="28.3941165" lon="104.7037348"><ele>525.99</ele><time>2026-05-15T21:39:10.000Z</time></trkpt>
        <trkpt lat="28.3941804" lon="104.7037598"><ele>523.74</ele><time>2026-05-15T21:39:18.000Z</time></trkpt>
        <trkpt lat="28.3942597" lon="104.703791"><ele>519.03</ele><time>2026-05-15T21:39:44.000Z</time></trkpt>
        <trkpt lat="28.3943476" lon="104.7038418"><ele>519.75</ele><time>2026-05-15T21:39:54.000Z</time></trkpt>
        <trkpt lat="28.3943605" lon="104.7038404"><ele>521.22</ele><time>2026-05-15T21:40:00.000Z</time></trkpt>
        <trkpt lat="28.3944165" lon="104.7038738"><ele>517.08</ele><time>2026-05-15T21:40:12.000Z</time></trkpt>
        <trkpt lat="28.3944414" lon="104.7039011"><ele>516.05</ele><time>2026-05-15T21:40:16.000Z</time></trkpt>
        <trkpt lat="28.3944763" lon="104.7039855"><ele>516.27</ele><time>2026-05-15T21:40:32.000Z</time></trkpt>
        <trkpt lat="28.3945147" lon="104.7040236"><ele>517.11</ele><time>2026-05-15T21:40:38.000Z</time></trkpt>
        <trkpt lat="28.3945885" lon="104.7040562"><ele>515.44</ele><time>2026-05-15T21:40:48.000Z</time></trkpt>
        <trkpt lat="28.3946686" lon="104.704105"><ele>517.13</ele><time>2026-05-15T21:40:58.000Z</time></trkpt>
        <trkpt lat="28.3947645" lon="104.7041465"><ele>518.07</ele><time>2026-05-15T21:41:12.000Z</time></trkpt>
        <trkpt lat="28.3948666" lon="104.7041726"><ele>518.6</ele><time>2026-05-15T21:41:20.000Z</time></trkpt>
        <trkpt lat="28.3949603" lon="104.7042122"><ele>518.93</ele><time>2026-05-15T21:41:30.000Z</time></trkpt>
        <trkpt lat="28.3950522" lon="104.7042298"><ele>517.23</ele><time>2026-05-15T21:41:40.000Z</time></trkpt>
        <trkpt lat="28.3951438" lon="104.704268"><ele>516.26</ele><time>2026-05-15T21:41:52.000Z</time></trkpt>
        <trkpt lat="28.3952374" lon="104.7043032"><ele>514.71</ele><time>2026-05-15T21:42:02.000Z</time></trkpt>
        <trkpt lat="28.3953318" lon="104.7043274"><ele>512.88</ele><time>2026-05-15T21:42:14.000Z</time></trkpt>
        <trkpt lat="28.3954316" lon="104.7043273"><ele>510.87</ele><time>2026-05-15T21:42:26.000Z</time></trkpt>
        <trkpt lat="28.3955258" lon="104.7043524"><ele>510.24</ele><time>2026-05-15T21:42:38.000Z</time></trkpt>
        <trkpt lat="28.3956211" lon="104.7043839"><ele>510.89</ele><time>2026-05-15T21:43:04.000Z</time></trkpt>
        <trkpt lat="28.3956407" lon="104.7043931"><ele>509.03</ele><time>2026-05-15T21:43:06.000Z</time></trkpt>
        <trkpt lat="28.3957129" lon="104.7043878"><ele>508.16</ele><time>2026-05-15T21:43:20.000Z</time></trkpt>
        <trkpt lat="28.3958064" lon="104.7043986"><ele>507.71</ele><time>2026-05-15T21:43:30.000Z</time></trkpt>
        <trkpt lat="28.3958945" lon="104.7044553"><ele>507.11</ele><time>2026-05-15T21:43:40.000Z</time></trkpt>
        <trkpt lat="28.3959697" lon="104.704542"><ele>506.01</ele><time>2026-05-15T21:43:50.000Z</time></trkpt>
        <trkpt lat="28.3959757" lon="104.7045783"><ele>506.31</ele><time>2026-05-15T21:43:56.000Z</time></trkpt>
        <trkpt lat="28.3959766" lon="104.7046668"><ele>505.3</ele><time>2026-05-15T21:44:08.000Z</time></trkpt>
        <trkpt lat="28.3960109" lon="104.7047654"><ele>505.22</ele><time>2026-05-15T21:44:20.000Z</time></trkpt>
        <trkpt lat="28.3960516" lon="104.7048701"><ele>504.6</ele><time>2026-05-15T21:44:30.000Z</time></trkpt>
        <trkpt lat="28.3961207" lon="104.7049622"><ele>504.16</ele><time>2026-05-15T21:44:42.000Z</time></trkpt>
        <trkpt lat="28.3962086" lon="104.7050199"><ele>504.09</ele><time>2026-05-15T21:44:50.000Z</time></trkpt>
        <trkpt lat="28.3962805" lon="104.7050929"><ele>503.64</ele><time>2026-05-15T21:44:58.000Z</time></trkpt>
        <trkpt lat="28.396356" lon="104.7051577"><ele>501.1</ele><time>2026-05-15T21:45:06.000Z</time></trkpt>
        <trkpt lat="28.3964388" lon="104.7052005"><ele>499.88</ele><time>2026-05-15T21:45:14.000Z</time></trkpt>
        <trkpt lat="28.3965325" lon="104.7052334"><ele>499.48</ele><time>2026-05-15T21:45:22.000Z</time></trkpt>
        <trkpt lat="28.3966554" lon="104.7052714"><ele>499.94</ele><time>2026-05-15T21:45:30.000Z</time></trkpt>
        <trkpt lat="28.39677" lon="104.7053065"><ele>501.33</ele><time>2026-05-15T21:45:36.000Z</time></trkpt>
        <trkpt lat="28.3968701" lon="104.7053181"><ele>502.24</ele><time>2026-05-15T21:45:42.000Z</time></trkpt>
        <trkpt lat="28.396978" lon="104.7053449"><ele>501.91</ele><time>2026-05-15T21:45:50.000Z</time></trkpt>
        <trkpt lat="28.3970861" lon="104.7053655"><ele>500.79</ele><time>2026-05-15T21:45:58.000Z</time></trkpt>
        <trkpt lat="28.3971803" lon="104.7053871"><ele>500.37</ele><time>2026-05-15T21:46:06.000Z</time></trkpt>
        <trkpt lat="28.3972701" lon="104.7054199"><ele>500.34</ele><time>2026-05-15T21:46:14.000Z</time></trkpt>
        <trkpt lat="28.3973463" lon="104.7054844"><ele>500.71</ele><time>2026-05-15T21:46:22.000Z</time></trkpt>
        <trkpt lat="28.3974041" lon="104.7055773"><ele>499.69</ele><time>2026-05-15T21:46:30.000Z</time></trkpt>
        <trkpt lat="28.3974536" lon="104.7056923"><ele>498.12</ele><time>2026-05-15T21:46:38.000Z</time></trkpt>
        <trkpt lat="28.3974933" lon="104.7058187"><ele>496.7</ele><time>2026-05-15T21:46:46.000Z</time></trkpt>
        <trkpt lat="28.3974964" lon="104.7059373"><ele>496.8</ele><time>2026-05-15T21:46:54.000Z</time></trkpt>
        <trkpt lat="28.3975091" lon="104.7060489"><ele>496.72</ele><time>2026-05-15T21:47:02.000Z</time></trkpt>
        <trkpt lat="28.3975528" lon="104.706146"><ele>495.48</ele><time>2026-05-15T21:47:10.000Z</time></trkpt>
        <trkpt lat="28.3976128" lon="104.7062335"><ele>493.33</ele><time>2026-05-15T21:47:18.000Z</time></trkpt>
        <trkpt lat="28.397694" lon="104.7063134"><ele>491.58</ele><time>2026-05-15T21:47:26.000Z</time></trkpt>
        <trkpt lat="28.3977817" lon="104.7063724"><ele>490.76</ele><time>2026-05-15T21:47:34.000Z</time></trkpt>
        <trkpt lat="28.3978343" lon="104.7064083"><ele>490</ele><time>2026-05-15T21:47:40.000Z</time></trkpt>
        <trkpt lat="28.397912" lon="104.7064235"><ele>489.99</ele><time>2026-05-15T21:48:06.000Z</time></trkpt>
        <trkpt lat="28.3980033" lon="104.7064321"><ele>489.23</ele><time>2026-05-15T21:48:14.000Z</time></trkpt>
        <trkpt lat="28.3980994" lon="104.706449"><ele>488.42</ele><time>2026-05-15T21:48:22.000Z</time></trkpt>
        <trkpt lat="28.3981998" lon="104.7064714"><ele>487.39</ele><time>2026-05-15T21:48:30.000Z</time></trkpt>
        <trkpt lat="28.3983048" lon="104.7065044"><ele>486.35</ele><time>2026-05-15T21:48:39.000Z</time></trkpt>
        <trkpt lat="28.3983979" lon="104.7065548"><ele>485.98</ele><time>2026-05-15T21:48:47.000Z</time></trkpt>
        <trkpt lat="28.3984824" lon="104.7066127"><ele>485.62</ele><time>2026-05-15T21:48:55.000Z</time></trkpt>
        <trkpt lat="28.3985709" lon="104.7066711"><ele>485.66</ele><time>2026-05-15T21:49:03.000Z</time></trkpt>
        <trkpt lat="28.3986424" lon="104.7067399"><ele>485.66</ele><time>2026-05-15T21:49:09.000Z</time></trkpt>
        <trkpt lat="28.398701" lon="104.7068362"><ele>485.13</ele><time>2026-05-15T21:49:17.000Z</time></trkpt>
        <trkpt lat="28.3987412" lon="104.7069427"><ele>484.26</ele><time>2026-05-15T21:49:25.000Z</time></trkpt>
        <trkpt lat="28.3988158" lon="104.7070228"><ele>483.41</ele><time>2026-05-15T21:49:33.000Z</time></trkpt>
        <trkpt lat="28.3989118" lon="104.7070897"><ele>481.97</ele><time>2026-05-15T21:49:41.000Z</time></trkpt>
        <trkpt lat="28.3989837" lon="104.7071748"><ele>481.36</ele><time>2026-05-15T21:49:53.000Z</time></trkpt>
        <trkpt lat="28.3990798" lon="104.7072236"><ele>479.67</ele><time>2026-05-15T21:50:01.000Z</time></trkpt>
        <trkpt lat="28.3991868" lon="104.7072441"><ele>478.53</ele><time>2026-05-15T21:50:09.000Z</time></trkpt>
        <trkpt lat="28.3992962" lon="104.7072534"><ele>477.55</ele><time>2026-05-15T21:50:17.000Z</time></trkpt>
        <trkpt lat="28.3993958" lon="104.7072507"><ele>476.23</ele><time>2026-05-15T21:50:25.000Z</time></trkpt>
        <trkpt lat="28.3995067" lon="104.7072455"><ele>475.53</ele><time>2026-05-15T21:50:33.000Z</time></trkpt>
        <trkpt lat="28.3996105" lon="104.7072656"><ele>474.62</ele><time>2026-05-15T21:50:41.000Z</time></trkpt>
        <trkpt lat="28.3997147" lon="104.7072874"><ele>473.87</ele><time>2026-05-15T21:50:49.000Z</time></trkpt>
        <trkpt lat="28.3998174" lon="104.7073394"><ele>472.82</ele><time>2026-05-15T21:50:57.000Z</time></trkpt>
        <trkpt lat="28.3999194" lon="104.7073869"><ele>472.2</ele><time>2026-05-15T21:51:05.000Z</time></trkpt>
        <trkpt lat="28.4000213" lon="104.7074214"><ele>471.73</ele><time>2026-05-15T21:51:13.000Z</time></trkpt>
        <trkpt lat="28.4001336" lon="104.7074549"><ele>471.11</ele><time>2026-05-15T21:51:21.000Z</time></trkpt>
        <trkpt lat="28.4002495" lon="104.7074843"><ele>469.09</ele><time>2026-05-15T21:51:29.000Z</time></trkpt>
        <trkpt lat="28.4003583" lon="104.7075065"><ele>466.81</ele><time>2026-05-15T21:51:37.000Z</time></trkpt>
        <trkpt lat="28.4004668" lon="104.7075012"><ele>465.06</ele><time>2026-05-15T21:51:45.000Z</time></trkpt>
        <trkpt lat="28.4005729" lon="104.707486"><ele>464.17</ele><time>2026-05-15T21:51:53.000Z</time></trkpt>
        <trkpt lat="28.400681" lon="104.7074547"><ele>463.3</ele><time>2026-05-15T21:52:01.000Z</time></trkpt>
        <trkpt lat="28.400788" lon="104.7074345"><ele>461.94</ele><time>2026-05-15T21:52:09.000Z</time></trkpt>
        <trkpt lat="28.4008967" lon="104.7074322"><ele>461.76</ele><time>2026-05-15T21:52:17.000Z</time></trkpt>
        <trkpt lat="28.4010066" lon="104.7074315"><ele>462.3</ele><time>2026-05-15T21:52:25.000Z</time></trkpt>
        <trkpt lat="28.4011168" lon="104.7074319"><ele>462</ele><time>2026-05-15T21:52:33.000Z</time></trkpt>
        <trkpt lat="28.4012291" lon="104.7074504"><ele>460.87</ele><time>2026-05-15T21:52:41.000Z</time></trkpt>
        <trkpt lat="28.4013408" lon="104.7074793"><ele>460.17</ele><time>2026-05-15T21:52:49.000Z</time></trkpt>
        <trkpt lat="28.4014518" lon="104.7075209"><ele>459.52</ele><time>2026-05-15T21:52:57.000Z</time></trkpt>
        <trkpt lat="28.4015532" lon="104.7075785"><ele>459.1</ele><time>2026-05-15T21:53:05.000Z</time></trkpt>
        <trkpt lat="28.4016064" lon="104.7076912"><ele>458.61</ele><time>2026-05-15T21:53:13.000Z</time></trkpt>
        <trkpt lat="28.4016072" lon="104.7078209"><ele>458.4</ele><time>2026-05-15T21:53:21.000Z</time></trkpt>
        <trkpt lat="28.4015903" lon="104.7079512"><ele>459.01</ele><time>2026-05-15T21:53:29.000Z</time></trkpt>
        <trkpt lat="28.4015921" lon="104.708082"><ele>458.86</ele><time>2026-05-15T21:53:37.000Z</time></trkpt>
        <trkpt lat="28.4015809" lon="104.7082102"><ele>459.02</ele><time>2026-05-15T21:53:45.000Z</time></trkpt>
        <trkpt lat="28.4015646" lon="104.708328"><ele>459.3</ele><time>2026-05-15T21:53:53.000Z</time></trkpt>
        <trkpt lat="28.4015659" lon="104.708436"><ele>461.22</ele><time>2026-05-15T21:54:01.000Z</time></trkpt>
        <trkpt lat="28.4015884" lon="104.7085452"><ele>461.81</ele><time>2026-05-15T21:54:09.000Z</time></trkpt>
        <trkpt lat="28.4016521" lon="104.708628"><ele>461.53</ele><time>2026-05-15T21:54:17.000Z</time></trkpt>
        <trkpt lat="28.4017565" lon="104.7086424"><ele>459.09</ele><time>2026-05-15T21:54:25.000Z</time></trkpt>
        <trkpt lat="28.4017908" lon="104.7086338"><ele>456.45</ele><time>2026-05-15T21:54:27.000Z</time></trkpt>
        <trkpt lat="28.4018573" lon="104.7085786"><ele>454.94</ele><time>2026-05-15T21:54:47.000Z</time></trkpt>
        <trkpt lat="28.4019342" lon="104.7085043"><ele>452.59</ele><time>2026-05-15T21:54:53.000Z</time></trkpt>
        <trkpt lat="28.4020258" lon="104.7084482"><ele>450.36</ele><time>2026-05-15T21:54:59.000Z</time></trkpt>
        <trkpt lat="28.4021362" lon="104.7084267"><ele>448.2</ele><time>2026-05-15T21:55:07.000Z</time></trkpt>
        <trkpt lat="28.4022406" lon="104.7084473"><ele>446.18</ele><time>2026-05-15T21:55:13.000Z</time></trkpt>
        <trkpt lat="28.4023456" lon="104.7084989"><ele>444.91</ele><time>2026-05-15T21:55:21.000Z</time></trkpt>
        <trkpt lat="28.402451" lon="104.7085623"><ele>443.55</ele><time>2026-05-15T21:55:29.000Z</time></trkpt>
        <trkpt lat="28.4025539" lon="104.7086183"><ele>442.7</ele><time>2026-05-15T21:55:37.000Z</time></trkpt>
        <trkpt lat="28.4026507" lon="104.708673"><ele>442.05</ele><time>2026-05-15T21:55:45.000Z</time></trkpt>
        <trkpt lat="28.402744" lon="104.7087427"><ele>441.27</ele><time>2026-05-15T21:55:53.000Z</time></trkpt>
        <trkpt lat="28.4028361" lon="104.7088154"><ele>440.76</ele><time>2026-05-15T21:56:01.000Z</time></trkpt>
        <trkpt lat="28.4029359" lon="104.7088261"><ele>440.06</ele><time>2026-05-15T21:56:09.000Z</time></trkpt>
        <trkpt lat="28.4030435" lon="104.7088379"><ele>438.89</ele><time>2026-05-15T21:56:17.000Z</time></trkpt>
        <trkpt lat="28.4031405" lon="104.7088444"><ele>437.67</ele><time>2026-05-15T21:56:23.000Z</time></trkpt>
        <trkpt lat="28.4032477" lon="104.7088583"><ele>436.67</ele><time>2026-05-15T21:56:31.000Z</time></trkpt>
        <trkpt lat="28.4033565" lon="104.7088891"><ele>435.75</ele><time>2026-05-15T21:56:39.000Z</time></trkpt>
        <trkpt lat="28.4034632" lon="104.7089474"><ele>434</ele><time>2026-05-15T21:56:47.000Z</time></trkpt>
        <trkpt lat="28.4035725" lon="104.7090043"><ele>432.63</ele><time>2026-05-15T21:56:55.000Z</time></trkpt>
        <trkpt lat="28.4036822" lon="104.7090265"><ele>431.71</ele><time>2026-05-15T21:57:03.000Z</time></trkpt>
        <trkpt lat="28.4037793" lon="104.7089922"><ele>431.21</ele><time>2026-05-15T21:57:11.000Z</time></trkpt>
        <trkpt lat="28.4038727" lon="104.708952"><ele>431.22</ele><time>2026-05-15T21:57:19.000Z</time></trkpt>
        <trkpt lat="28.4039719" lon="104.7089251"><ele>430.94</ele><time>2026-05-15T21:57:27.000Z</time></trkpt>
        <trkpt lat="28.4040723" lon="104.7089165"><ele>431.58</ele><time>2026-05-15T21:57:35.000Z</time></trkpt>
        <trkpt lat="28.4041699" lon="104.7089151"><ele>431.32</ele><time>2026-05-15T21:57:43.000Z</time></trkpt>
        <trkpt lat="28.4042642" lon="104.7089329"><ele>430.53</ele><time>2026-05-15T21:57:51.000Z</time></trkpt>
        <trkpt lat="28.4043598" lon="104.7089592"><ele>430.14</ele><time>2026-05-15T21:57:59.000Z</time></trkpt>
        <trkpt lat="28.4044568" lon="104.7090138"><ele>429.8</ele><time>2026-05-15T21:58:07.000Z</time></trkpt>
        <trkpt lat="28.4045527" lon="104.7090563"><ele>428.63</ele><time>2026-05-15T21:58:15.000Z</time></trkpt>
        <trkpt lat="28.4046476" lon="104.7090916"><ele>427.3</ele><time>2026-05-15T21:58:23.000Z</time></trkpt>
        <trkpt lat="28.4047098" lon="104.7091787"><ele>426.71</ele><time>2026-05-15T21:58:31.000Z</time></trkpt>
        <trkpt lat="28.4047237" lon="104.7092947"><ele>426.12</ele><time>2026-05-15T21:58:39.000Z</time></trkpt>
        <trkpt lat="28.4046918" lon="104.709411"><ele>425.56</ele><time>2026-05-15T21:58:47.000Z</time></trkpt>
        <trkpt lat="28.4046271" lon="104.7095107"><ele>425.25</ele><time>2026-05-15T21:58:55.000Z</time></trkpt>
        <trkpt lat="28.4045654" lon="104.7096053"><ele>425.15</ele><time>2026-05-15T21:59:03.000Z</time></trkpt>
        <trkpt lat="28.4045096" lon="104.7097002"><ele>425.13</ele><time>2026-05-15T21:59:11.000Z</time></trkpt>
        <trkpt lat="28.4044589" lon="104.7098002"><ele>424.32</ele><time>2026-05-15T21:59:19.000Z</time></trkpt>
        <trkpt lat="28.4044048" lon="104.7099034"><ele>423.68</ele><time>2026-05-15T21:59:27.000Z</time></trkpt>
        <trkpt lat="28.4043553" lon="104.7100127"><ele>423.05</ele><time>2026-05-15T21:59:35.000Z</time></trkpt>
        <trkpt lat="28.4043272" lon="104.7101359"><ele>422.58</ele><time>2026-05-15T21:59:43.000Z</time></trkpt>
        <trkpt lat="28.4043476" lon="104.7102558"><ele>422.36</ele><time>2026-05-15T21:59:51.000Z</time></trkpt>
        <trkpt lat="28.4043944" lon="104.7103673"><ele>421.88</ele><time>2026-05-15T21:59:59.000Z</time></trkpt>
        <trkpt lat="28.4044658" lon="104.7104706"><ele>421.85</ele><time>2026-05-15T22:00:07.000Z</time></trkpt>
        <trkpt lat="28.4045395" lon="104.7105705"><ele>421.64</ele><time>2026-05-15T22:00:15.000Z</time></trkpt>
        <trkpt lat="28.4046078" lon="104.7106664"><ele>421.16</ele><time>2026-05-15T22:00:23.000Z</time></trkpt>
        <trkpt lat="28.4046781" lon="104.7107643"><ele>420.1</ele><time>2026-05-15T22:00:31.000Z</time></trkpt>
        <trkpt lat="28.4047393" lon="104.7108507"><ele>418.84</ele><time>2026-05-15T22:00:37.000Z</time></trkpt>
        <trkpt lat="28.4048257" lon="104.7108679"><ele>417.83</ele><time>2026-05-15T22:00:43.000Z</time></trkpt>
        <trkpt lat="28.4048565" lon="104.7109546"><ele>416.52</ele><time>2026-05-15T22:00:49.000Z</time></trkpt>
        <trkpt lat="28.4048648" lon="104.7110664"><ele>416.38</ele><time>2026-05-15T22:00:59.000Z</time></trkpt>
        <trkpt lat="28.4048669" lon="104.7111942"><ele>416.25</ele><time>2026-05-15T22:01:09.000Z</time></trkpt>
        <trkpt lat="28.4048542" lon="104.7113105"><ele>415.68</ele><time>2026-05-15T22:01:17.000Z</time></trkpt>
        <trkpt lat="28.4048684" lon="104.7114173"><ele>414.71</ele><time>2026-05-15T22:01:25.000Z</time></trkpt>
        <trkpt lat="28.4048876" lon="104.7114467"><ele>414.18</ele><time>2026-05-15T22:01:29.000Z</time></trkpt>
        <trkpt lat="28.4049587" lon="104.7114834"><ele>413.62</ele><time>2026-05-15T22:01:45.000Z</time></trkpt>
        <trkpt lat="28.4050494" lon="104.7115328"><ele>413.89</ele><time>2026-05-15T22:01:55.000Z</time></trkpt>
        <trkpt lat="28.4051385" lon="104.7115883"><ele>413.55</ele><time>2026-05-15T22:02:03.000Z</time></trkpt>
        <trkpt lat="28.405218" lon="104.7116488"><ele>413.14</ele><time>2026-05-15T22:02:11.000Z</time></trkpt>
        <trkpt lat="28.4052252" lon="104.7116724"><ele>413.47</ele><time>2026-05-15T22:02:13.000Z</time></trkpt>
        <trkpt lat="28.4052711" lon="104.7115734"><ele>413.08</ele><time>2026-05-15T22:03:37.000Z</time></trkpt>
        <trkpt lat="28.4052772" lon="104.7115531"><ele>412.38</ele><time>2026-05-15T22:03:39.000Z</time></trkpt>
        <trkpt lat="28.4052772" lon="104.7115531"><ele>412.38</ele><time>2026-05-15T22:05:07.000Z</time></trkpt>
      </trkseg>
  </trk>
</gpx>